You cannot select more than 25 topics Topics must start with a letter or number, can include dashes ('-') and can be up to 35 characters long.
igc2kmz/examples/2008-07-28-XPG-KVE-02.igc

5268 lines
190 KiB
Plaintext

AXPG GPSMAP 76S Software Version 4.00 - 2239231138
HFDTE280708
HPPLTPILOT:Karel Vejchodsk├Ż
HPGTYGLIDERTYPE:GRADIENT Avax XC 2
HODTM100GPSDATUM: WGS-84
HOSITSite:Nove Sady (CZ)
HPCCLCOMPETITION CLASS:FAI-3 (PG)
B0922454917776N01610762EA0000000474
B0922504917776N01610761EA0000000474
B0922554917776N01610761EA0000000474
B0923004917776N01610761EA0000000474
B0923054917773N01610766EA0000000473
B0923104917763N01610780EA0000000485
B0923154917760N01610808EA0000000499
B0923204917756N01610836EA0000000518
B0923254917741N01610857EA0000000532
B0923304917728N01610877EA0000000552
B0923354917718N01610896EA0000000565
B0923404917705N01610916EA0000000576
B0923454917697N01610942EA0000000581
B0923504917685N01610963EA0000000591
B0923554917674N01610985EA0000000599
B0924004917662N01611010EA0000000609
B0924054917648N01611038EA0000000622
B0924104917634N01611067EA0000000635
B0924154917622N01611094EA0000000650
B0924204917610N01611119EA0000000670
B0924254917601N01611144EA0000000697
B0924304917593N01611170EA0000000723
B0924354917583N01611194EA0000000755
B0924404917573N01611224EA0000000783
B0924454917574N01611236EA0000000799
B0924504917551N01611214EA0000000789
B0924554917544N01611162EA0000000786
B0925004917545N01611097EA0000000784
B0925054917554N01611037EA0000000790
B0925104917577N01611004EA0000000798
B0925154917579N01611019EA0000000804
B0925204917565N01610981EA0000000813
B0925254917588N01610934EA0000000816
B0925304917614N01610931EA0000000823
B0925354917610N01610945EA0000000830
B0925404917613N01610901EA0000000838
B0925454917632N01610910EA0000000848
B0925504917618N01610896EA0000000858
B0925554917639N01610849EA0000000863
B0926004917660N01610856EA0000000873
B0926054917644N01610837EA0000000880
B0926104917664N01610794EA0000000889
B0926154917679N01610807EA0000000898
B0926204917664N01610790EA0000000906
B0926254917673N01610741EA0000000914
B0926304917699N01610741EA0000000921
B0926354917691N01610747EA0000000929
B0926404917683N01610701EA0000000937
B0926454917706N01610661EA0000000946
B0926504917730N01610668EA0000000952
B0926554917718N01610669EA0000000958
B0927004917707N01610627EA0000000967
B0927054917723N01610579EA0000000971
B0927104917753N01610571EA0000000980
B0927154917745N01610569EA0000000987
B0927204917746N01610516EA0000000997
B0927254917776N01610495EA0000001004
B0927304917774N01610499EA0000001009
B0927354917764N01610453EA0000001018
B0927404917786N01610408EA0000001023
B0927454917811N01610408EA0000001027
B0927504917813N01610417EA0000001029
B0927554917797N01610391EA0000001038
B0928004917795N01610345EA0000001041
B0928054917823N01610307EA0000001037
B0928104917848N01610304EA0000001045
B0928154917856N01610316EA0000001045
B0928204917841N01610307EA0000001051
B0928254917831N01610292EA0000001053
B0928304917832N01610307EA0000001053
B0928354917849N01610313EA0000001061
B0928404917869N01610268EA0000001061
B0928454917857N01610233EA0000001062
B0928504917857N01610249EA0000001066
B0928554917874N01610257EA0000001070
B0929004917894N01610263EA0000001073
B0929054917918N01610266EA0000001084
B0929104917909N01610273EA0000001086
B0929154917907N01610223EA0000001088
B0929204917930N01610180EA0000001094
B0929254917957N01610164EA0000001105
B0929304917947N01610169EA0000001112
B0929354917959N01610123EA0000001120
B0929404917983N01610127EA0000001128
B0929454917967N01610117EA0000001133
B0929504917983N01610072EA0000001138
B0929554918008N01610069EA0000001147
B0930004917999N01610080EA0000001149
B0930054917998N01610037EA0000001150
B0930104918029N01610013EA0000001155
B0930154918050N01610021EA0000001165
B0930204918033N01610019EA0000001160
B0930254918041N01609970EA0000001161
B0930304918069N01609942EA0000001168
B0930354918101N01609938EA0000001170
B0930404918127N01609942EA0000001177
B0930454918124N01609957EA0000001169
B0930504918104N01609936EA0000001163
B0930554918096N01609889EA0000001167
B0931004918106N01609837EA0000001172
B0931054918134N01609809EA0000001174
B0931104918167N01609802EA0000001183
B0931154918166N01609817EA0000001183
B0931204918156N01609781EA0000001186
B0931254918184N01609741EA0000001189
B0931304918209N01609721EA0000001190
B0931354918236N01609716EA0000001186
B0931404918252N01609724EA0000001177
B0931454918252N01609742EA0000001172
B0931504918259N01609760EA0000001166
B0931554918279N01609781EA0000001159
B0932004918303N01609792EA0000001166
B0932054918319N01609801EA0000001170
B0932104918338N01609806EA0000001174
B0932154918354N01609815EA0000001175
B0932204918376N01609816EA0000001175
B0932254918397N01609821EA0000001177
B0932304918416N01609829EA0000001180
B0932354918434N01609841EA0000001184
B0932404918455N01609850EA0000001186
B0932454918478N01609861EA0000001186
B0932504918502N01609878EA0000001187
B0932554918522N01609901EA0000001184
B0933004918542N01609921EA0000001186
B0933054918560N01609947EA0000001185
B0933104918574N01609971EA0000001180
B0933154918588N01609994EA0000001181
B0933204918604N01610014EA0000001180
B0933254918617N01610037EA0000001178
B0933304918633N01610048EA0000001184
B0933354918649N01610062EA0000001184
B0933404918662N01610077EA0000001192
B0933454918674N01610100EA0000001198
B0933504918684N01610119EA0000001202
B0933554918695N01610142EA0000001212
B0934004918698N01610164EA0000001230
B0934054918685N01610128EA0000001245
B0934104918711N01610098EA0000001262
B0934154918717N01610113EA0000001276
B0934204918706N01610075EA0000001290
B0934254918730N01610040EA0000001307
B0934304918744N01610051EA0000001323
B0934354918728N01610020EA0000001338
B0934404918751N01609979EA0000001354
B0934454918768N01609988EA0000001367
B0934504918755N01609996EA0000001382
B0934554918742N01609980EA0000001392
B0935004918740N01609927EA0000001400
B0935054918768N01609907EA0000001409
B0935104918775N01609929EA0000001422
B0935154918765N01609934EA0000001433
B0935204918748N01609937EA0000001446
B0935254918733N01609907EA0000001459
B0935304918754N01609867EA0000001469
B0935354918776N01609878EA0000001482
B0935404918776N01609895EA0000001491
B0935454918762N01609903EA0000001499
B0935504918738N01609891EA0000001506
B0935554918714N01609891EA0000001521
B0936004918714N01609907EA0000001537
B0936054918729N01609875EA0000001545
B0936104918706N01609870EA0000001557
B0936154918693N01609884EA0000001561
B0936204918693N01609911EA0000001562
B0936254918718N01609914EA0000001563
B0936304918748N01609903EA0000001575
B0936354918765N01609919EA0000001580
B0936404918746N01609938EA0000001579
B0936454918732N01609931EA0000001585
B0936504918716N01609900EA0000001589
B0936554918699N01609866EA0000001588
B0937004918685N01609831EA0000001593
B0937054918670N01609801EA0000001596
B0937104918652N01609775EA0000001605
B0937154918645N01609731EA0000001608
B0937204918657N01609684EA0000001614
B0937254918675N01609635EA0000001616
B0937304918693N01609586EA0000001632
B0937354918712N01609588EA0000001645
B0937404918690N01609588EA0000001660
B0937454918687N01609531EA0000001679
B0937504918701N01609480EA0000001691
B0937554918709N01609428EA0000001694
B0938004918727N01609373EA0000001698
B0938054918749N01609323EA0000001711
B0938104918778N01609269EA0000001723
B0938154918800N01609221EA0000001748
B0938204918823N01609175EA0000001763
B0938254918844N01609134EA0000001773
B0938304918866N01609099EA0000001784
B0938354918887N01609055EA0000001789
B0938404918904N01609007EA0000001792
B0938454918922N01608956EA0000001791
B0938504918938N01608904EA0000001793
B0938554918955N01608851EA0000001792
B0939004918972N01608799EA0000001789
B0939054918993N01608746EA0000001787
B0939104919011N01608710EA0000001776
B0939154919023N01608664EA0000001759
B0939204919027N01608605EA0000001741
B0939254919041N01608543EA0000001731
B0939304919057N01608486EA0000001720
B0939354919076N01608435EA0000001726
B0939404919091N01608379EA0000001728
B0939454919104N01608323EA0000001732
B0939504919111N01608267EA0000001735
B0939554919122N01608215EA0000001739
B0940004919133N01608164EA0000001750
B0940054919144N01608115EA0000001764
B0940104919155N01608062EA0000001769
B0940154919167N01608012EA0000001776
B0940204919176N01607962EA0000001785
B0940254919185N01607911EA0000001788
B0940304919190N01607855EA0000001791
B0940354919199N01607802EA0000001798
B0940404919216N01607748EA0000001804
B0940454919230N01607691EA0000001812
B0940504919248N01607639EA0000001825
B0940554919269N01607582EA0000001832
B0941004919281N01607524EA0000001840
B0941054919287N01607473EA0000001842
B0941104919294N01607421EA0000001839
B0941154919304N01607355EA0000001830
B0941204919312N01607302EA0000001838
B0941254919323N01607237EA0000001826
B0941304919333N01607176EA0000001825
B0941354919341N01607123EA0000001825
B0941404919352N01607072EA0000001820
B0941454919368N01607009EA0000001807
B0941504919378N01606959EA0000001814
B0941554919388N01606906EA0000001814
B0942004919400N01606856EA0000001808
B0942054919411N01606804EA0000001808
B0942104919423N01606756EA0000001807
B0942154919438N01606708EA0000001802
B0942204919454N01606659EA0000001797
B0942254919471N01606611EA0000001793
B0942304919496N01606557EA0000001782
B0942354919517N01606503EA0000001773
B0942404919539N01606442EA0000001762
B0942454919561N01606384EA0000001755
B0942504919584N01606325EA0000001741
B0942554919605N01606268EA0000001736
B0943004919624N01606208EA0000001727
B0943054919642N01606146EA0000001717
B0943104919666N01606093EA0000001710
B0943154919690N01606041EA0000001700
B0943204919712N01605989EA0000001693
B0943254919733N01605931EA0000001684
B0943304919754N01605873EA0000001680
B0943354919773N01605815EA0000001675
B0943404919787N01605764EA0000001675
B0943454919804N01605713EA0000001668
B0943504919823N01605668EA0000001662
B0943554919840N01605630EA0000001650
B0944004919861N01605584EA0000001635
B0944054919873N01605539EA0000001634
B0944104919880N01605496EA0000001641
B0944154919887N01605442EA0000001642
B0944204919901N01605393EA0000001644
B0944254919912N01605346EA0000001652
B0944304919923N01605292EA0000001655
B0944354919936N01605247EA0000001664
B0944404919943N01605204EA0000001669
B0944454919954N01605150EA0000001669
B0944504919964N01605102EA0000001674
B0944554919977N01605050EA0000001665
B0945004919996N01605000EA0000001661
B0945054920014N01604947EA0000001656
B0945104920034N01604891EA0000001652
B0945154920055N01604836EA0000001654
B0945204920077N01604784EA0000001660
B0945254920093N01604734EA0000001666
B0945304920106N01604684EA0000001669
B0945354920120N01604637EA0000001674
B0945404920134N01604584EA0000001674
B0945454920154N01604532EA0000001674
B0945504920174N01604478EA0000001679
B0945554920193N01604425EA0000001686
B0946004920213N01604372EA0000001691
B0946054920231N01604316EA0000001692
B0946104920248N01604259EA0000001693
B0946154920261N01604207EA0000001691
B0946204920279N01604153EA0000001684
B0946254920295N01604103EA0000001677
B0946304920316N01604050EA0000001672
B0946354920338N01603999EA0000001665
B0946404920359N01603947EA0000001656
B0946454920383N01603891EA0000001648
B0946504920408N01603830EA0000001634
B0946554920431N01603774EA0000001625
B0947004920450N01603714EA0000001616
B0947054920471N01603656EA0000001606
B0947104920491N01603597EA0000001599
B0947154920509N01603535EA0000001590
B0947204920529N01603473EA0000001577
B0947254920550N01603408EA0000001567
B0947304920569N01603342EA0000001560
B0947354920584N01603279EA0000001546
B0947404920602N01603219EA0000001538
B0947454920607N01603155EA0000001525
B0947504920588N01603067EA0000001517
B0947554920609N01603030EA0000001501
B0948004920637N01602980EA0000001501
B0948054920661N01602937EA0000001498
B0948104920686N01602894EA0000001495
B0948154920663N01602795EA0000001490
B0948204920678N01602742EA0000001490
B0948254920693N01602690EA0000001485
B0948304920704N01602641EA0000001482
B0948354920711N01602591EA0000001473
B0948404920716N01602538EA0000001465
B0948454920724N01602487EA0000001455
B0948504920745N01602426EA0000001436
B0948554920765N01602376EA0000001426
B0949004920775N01602321EA0000001415
B0949054920782N01602258EA0000001404
B0949104920793N01602193EA0000001402
B0949154920801N01602135EA0000001395
B0949204920810N01602071EA0000001397
B0949254920817N01602014EA0000001406
B0949304920818N01601965EA0000001409
B0949354920815N01601912EA0000001414
B0949404920806N01601860EA0000001416
B0949454920800N01601802EA0000001420
B0949504920797N01601741EA0000001426
B0949554920800N01601683EA0000001427
B0950004920803N01601627EA0000001425
B0950054920807N01601562EA0000001427
B0950104920814N01601502EA0000001433
B0950154920826N01601448EA0000001435
B0950204920847N01601405EA0000001443
B0950254920868N01601365EA0000001445
B0950304920898N01601347EA0000001452
B0950354920909N01601358EA0000001465
B0950404920892N01601332EA0000001475
B0950454920911N01601282EA0000001484
B0950504920932N01601276EA0000001497
B0950554920916N01601278EA0000001510
B0951004920910N01601226EA0000001518
B0951054920931N01601179EA0000001528
B0951104920949N01601181EA0000001540
B0951154920930N01601172EA0000001546
B0951204920926N01601112EA0000001558
B0951254920948N01601079EA0000001568
B0951304920949N01601098EA0000001577
B0951354920932N01601066EA0000001586
B0951404920935N01601006EA0000001597
B0951454920960N01600997EA0000001604
B0951504920957N01601017EA0000001613
B0951554920938N01601000EA0000001618
B0952004920926N01600947EA0000001629
B0952054920911N01600913EA0000001635
B0952104920917N01600927EA0000001638
B0952154920943N01600903EA0000001647
B0952204920957N01600847EA0000001654
B0952254920962N01600790EA0000001663
B0952304920970N01600741EA0000001684
B0952354920990N01600764EA0000001687
B0952404920987N01600784EA0000001702
B0952454920973N01600744EA0000001708
B0952504920989N01600693EA0000001721
B0952554921019N01600682EA0000001725
B0953004921039N01600699EA0000001740
B0953054921030N01600703EA0000001751
B0953104921025N01600660EA0000001765
B0953154921039N01600612EA0000001779
B0953204921058N01600567EA0000001796
B0953254921069N01600518EA0000001815
B0953304921077N01600463EA0000001826
B0953354921082N01600409EA0000001828
B0953404921089N01600354EA0000001840
B0953454921093N01600294EA0000001843
B0953504921099N01600237EA0000001846
B0953554921109N01600176EA0000001852
B0954004921117N01600117EA0000001855
B0954054921128N01600058EA0000001863
B0954104921135N01559998EA0000001876
B0954154921141N01559937EA0000001889
B0954204921134N01559878EA0000001893
B0954254921143N01559817EA0000001902
B0954304921152N01559759EA0000001905
B0954354921164N01559703EA0000001901
B0954404921177N01559653EA0000001898
B0954454921184N01559594EA0000001897
B0954504921185N01559540EA0000001892
B0954554921186N01559483EA0000001889
B0955004921194N01559426EA0000001883
B0955054921204N01559370EA0000001880
B0955104921213N01559314EA0000001876
B0955154921222N01559258EA0000001869
B0955204921228N01559206EA0000001862
B0955254921239N01559145EA0000001850
B0955304921255N01559081EA0000001840
B0955354921269N01559018EA0000001830
B0955404921275N01558963EA0000001822
B0955454921283N01558891EA0000001805
B0955504921291N01558826EA0000001799
B0955554921298N01558762EA0000001792
B0956004921303N01558695EA0000001789
B0956054921305N01558629EA0000001789
B0956104921311N01558577EA0000001791
B0956154921317N01558519EA0000001790
B0956204921322N01558462EA0000001792
B0956254921329N01558404EA0000001794
B0956304921335N01558344EA0000001797
B0956354921344N01558286EA0000001796
B0956404921351N01558223EA0000001791
B0956454921357N01558154EA0000001780
B0956504921364N01558088EA0000001781
B0956554921371N01558032EA0000001782
B0957004921374N01557971EA0000001779
B0957054921379N01557908EA0000001774
B0957104921382N01557847EA0000001768
B0957154921386N01557785EA0000001763
B0957204921391N01557726EA0000001758
B0957254921397N01557670EA0000001752
B0957304921405N01557611EA0000001756
B0957354921410N01557557EA0000001758
B0957404921417N01557498EA0000001766
B0957454921422N01557452EA0000001776
B0957504921420N01557399EA0000001783
B0957554921424N01557354EA0000001793
B0958004921424N01557300EA0000001803
B0958054921419N01557259EA0000001819
B0958104921411N01557268EA0000001833
B0958154921440N01557251EA0000001840
B0958204921446N01557204EA0000001856
B0958254921435N01557174EA0000001866
B0958304921443N01557193EA0000001874
B0958354921470N01557164EA0000001883
B0958404921483N01557115EA0000001897
B0958454921477N01557080EA0000001905
B0958504921462N01557083EA0000001917
B0958554921446N01557056EA0000001923
B0959004921447N01557005EA0000001930
B0959054921454N01556949EA0000001932
B0959104921460N01556888EA0000001932
B0959154921472N01556830EA0000001930
B0959204921486N01556769EA0000001931
B0959254921499N01556709EA0000001930
B0959304921512N01556650EA0000001933
B0959354921524N01556592EA0000001930
B0959404921539N01556532EA0000001928
B0959454921556N01556470EA0000001929
B0959504921573N01556415EA0000001937
B0959554921586N01556359EA0000001947
B1000004921597N01556304EA0000001952
B1000054921605N01556247EA0000001955
B1000104921619N01556193EA0000001953
B1000154921632N01556135EA0000001955
B1000204921647N01556082EA0000001960
B1000254921658N01556031EA0000001962
B1000304921667N01555980EA0000001960
B1000354921677N01555926EA0000001945
B1000404921693N01555862EA0000001923
B1000454921705N01555792EA0000001905
B1000504921717N01555726EA0000001891
B1000554921730N01555658EA0000001878
B1001004921742N01555591EA0000001867
B1001054921751N01555528EA0000001858
B1001104921764N01555468EA0000001847
B1001154921779N01555408EA0000001834
B1001204921794N01555347EA0000001826
B1001254921806N01555294EA0000001826
B1001304921815N01555241EA0000001821
B1001354921820N01555188EA0000001819
B1001404921821N01555133EA0000001816
B1001454921819N01555077EA0000001813
B1001504921820N01555018EA0000001811
B1001554921821N01554961EA0000001805
B1002004921821N01554906EA0000001803
B1002054921820N01554841EA0000001792
B1002104921816N01554771EA0000001782
B1002154921811N01554703EA0000001771
B1002204921804N01554635EA0000001764
B1002254921795N01554565EA0000001755
B1002304921784N01554498EA0000001745
B1002354921778N01554429EA0000001739
B1002404921771N01554355EA0000001724
B1002454921764N01554285EA0000001709
B1002504921755N01554213EA0000001698
B1002554921744N01554143EA0000001687
B1003004921732N01554073EA0000001670
B1003054921719N01554000EA0000001655
B1003104921705N01553927EA0000001640
B1003154921687N01553862EA0000001632
B1003204921665N01553804EA0000001620
B1003254921641N01553750EA0000001608
B1003304921617N01553701EA0000001598
B1003354921592N01553650EA0000001582
B1003404921566N01553600EA0000001568
B1003454921542N01553548EA0000001557
B1003504921516N01553503EA0000001552
B1003554921493N01553461EA0000001539
B1004004921467N01553422EA0000001531
B1004054921441N01553385EA0000001520
B1004104921417N01553350EA0000001514
B1004154921391N01553312EA0000001500
B1004204921366N01553271EA0000001491
B1004254921344N01553236EA0000001483
B1004304921329N01553201EA0000001476
B1004354921307N01553162EA0000001455
B1004404921281N01553125EA0000001450
B1004454921258N01553097EA0000001448
B1004504921236N01553062EA0000001432
B1004554921208N01553023EA0000001418
B1005004921185N01552978EA0000001403
B1005054921165N01552934EA0000001397
B1005104921150N01552900EA0000001395
B1005154921131N01552874EA0000001386
B1005204921107N01552847EA0000001379
B1005254921086N01552824EA0000001375
B1005304921065N01552800EA0000001370
B1005354921045N01552781EA0000001365
B1005404921026N01552760EA0000001360
B1005454921006N01552735EA0000001353
B1005504920985N01552708EA0000001350
B1005554920965N01552676EA0000001345
B1006004920946N01552643EA0000001346
B1006054920927N01552611EA0000001346
B1006104920906N01552577EA0000001345
B1006154920886N01552550EA0000001348
B1006204920866N01552522EA0000001348
B1006254920845N01552493EA0000001348
B1006304920824N01552457EA0000001347
B1006354920806N01552416EA0000001346
B1006404920789N01552374EA0000001342
B1006454920776N01552336EA0000001339
B1006504920765N01552293EA0000001337
B1006554920754N01552249EA0000001335
B1007004920744N01552198EA0000001334
B1007054920739N01552148EA0000001329
B1007104920734N01552091EA0000001317
B1007154920731N01552028EA0000001305
B1007204920735N01551961EA0000001302
B1007254920741N01551893EA0000001300
B1007304920747N01551827EA0000001300
B1007354920750N01551760EA0000001303
B1007404920757N01551698EA0000001313
B1007454920787N01551673EA0000001324
B1007504920777N01551677EA0000001336
B1007554920780N01551625EA0000001351
B1008004920808N01551604EA0000001363
B1008054920802N01551611EA0000001377
B1008104920798N01551558EA0000001389
B1008154920814N01551507EA0000001405
B1008204920829N01551517EA0000001408
B1008254920811N01551507EA0000001421
B1008304920803N01551464EA0000001433
B1008354920826N01551423EA0000001444
B1008404920828N01551437EA0000001449
B1008454920813N01551408EA0000001463
B1008504920826N01551352EA0000001473
B1008554920845N01551348EA0000001478
B1009004920828N01551345EA0000001486
B1009054920815N01551302EA0000001495
B1009104920811N01551245EA0000001504
B1009154920832N01551205EA0000001511
B1009204920858N01551201EA0000001512
B1009254920853N01551213EA0000001512
B1009304920829N01551182EA0000001520
B1009354920817N01551129EA0000001522
B1009404920812N01551074EA0000001527
B1009454920809N01551022EA0000001533
B1009504920807N01550967EA0000001541
B1009554920810N01550915EA0000001549
B1010004920811N01550867EA0000001550
B1010054920814N01550812EA0000001544
B1010104920815N01550749EA0000001538
B1010154920813N01550684EA0000001538
B1010204920808N01550620EA0000001538
B1010254920802N01550565EA0000001546
B1010304920798N01550507EA0000001537
B1010354920790N01550447EA0000001540
B1010404920778N01550392EA0000001550
B1010454920776N01550341EA0000001557
B1010504920797N01550280EA0000001560
B1010554920822N01550278EA0000001563
B1011004920806N01550270EA0000001570
B1011054920793N01550234EA0000001582
B1011104920810N01550182EA0000001589
B1011154920836N01550180EA0000001599
B1011204920826N01550180EA0000001608
B1011254920822N01550134EA0000001621
B1011304920838N01550079EA0000001630
B1011354920865N01550079EA0000001643
B1011404920858N01550083EA0000001650
B1011454920842N01550038EA0000001660
B1011504920841N01549979EA0000001667
B1011554920839N01549918EA0000001681
B1012004920828N01549908EA0000001693
B1012054920853N01549900EA0000001705
B1012104920874N01549845EA0000001715
B1012154920878N01549794EA0000001731
B1012204920869N01549791EA0000001745
B1012254920892N01549798EA0000001758
B1012304920925N01549763EA0000001774
B1012354920942N01549704EA0000001788
B1012404920939N01549660EA0000001799
B1012454920936N01549669EA0000001807
B1012504920960N01549678EA0000001820
B1012554920994N01549646EA0000001829
B1013004921008N01549589EA0000001834
B1013054921012N01549532EA0000001842
B1013104921013N01549474EA0000001848
B1013154921019N01549425EA0000001855
B1013204921019N01549371EA0000001856
B1013254921017N01549315EA0000001858
B1013304921013N01549257EA0000001863
B1013354921009N01549195EA0000001864
B1013404921011N01549126EA0000001866
B1013454921011N01549060EA0000001864
B1013504921013N01548996EA0000001864
B1013554921019N01548929EA0000001859
B1014004921023N01548863EA0000001852
B1014054921029N01548799EA0000001850
B1014104921035N01548738EA0000001841
B1014154921046N01548678EA0000001827
B1014204921054N01548610EA0000001805
B1014254921058N01548548EA0000001803
B1014304921067N01548474EA0000001788
B1014354921074N01548398EA0000001781
B1014404921081N01548322EA0000001767
B1014454921090N01548250EA0000001755
B1014504921097N01548169EA0000001736
B1014554921103N01548094EA0000001721
B1015004921115N01548022EA0000001711
B1015054921127N01547949EA0000001707
B1015104921136N01547875EA0000001701
B1015154921146N01547807EA0000001702
B1015204921155N01547734EA0000001691
B1015254921164N01547663EA0000001680
B1015304921171N01547587EA0000001662
B1015354921181N01547510EA0000001644
B1015404921192N01547435EA0000001632
B1015454921201N01547361EA0000001620
B1015504921212N01547287EA0000001602
B1015554921224N01547221EA0000001595
B1016004921237N01547148EA0000001585
B1016054921250N01547078EA0000001573
B1016104921260N01547009EA0000001566
B1016154921270N01546937EA0000001556
B1016204921278N01546861EA0000001547
B1016254921288N01546787EA0000001545
B1016304921298N01546711EA0000001544
B1016354921306N01546645EA0000001548
B1016404921313N01546579EA0000001553
B1016454921319N01546519EA0000001562
B1016504921319N01546459EA0000001569
B1016554921317N01546402EA0000001582
B1017004921323N01546341EA0000001590
B1017054921353N01546312EA0000001594
B1017104921355N01546325EA0000001600
B1017154921342N01546289EA0000001610
B1017204921334N01546234EA0000001620
B1017254921343N01546175EA0000001624
B1017304921361N01546129EA0000001626
B1017354921374N01546076EA0000001625
B1017404921375N01546023EA0000001634
B1017454921371N01545974EA0000001639
B1017504921364N01545925EA0000001642
B1017554921365N01545875EA0000001645
B1018004921364N01545828EA0000001645
B1018054921368N01545774EA0000001644
B1018104921360N01545726EA0000001644
B1018154921350N01545680EA0000001644
B1018204921343N01545631EA0000001641
B1018254921337N01545585EA0000001639
B1018304921330N01545540EA0000001636
B1018354921322N01545492EA0000001630
B1018404921317N01545442EA0000001625
B1018454921315N01545390EA0000001622
B1018504921314N01545334EA0000001616
B1018554921316N01545276EA0000001612
B1019004921315N01545221EA0000001602
B1019054921313N01545165EA0000001592
B1019104921314N01545109EA0000001588
B1019154921315N01545056EA0000001581
B1019204921317N01545001EA0000001572
B1019254921321N01544942EA0000001566
B1019304921325N01544882EA0000001559
B1019354921328N01544824EA0000001553
B1019404921333N01544762EA0000001543
B1019454921334N01544703EA0000001532
B1019504921336N01544638EA0000001523
B1019554921338N01544576EA0000001515
B1020004921342N01544511EA0000001502
B1020054921345N01544451EA0000001496
B1020104921348N01544385EA0000001487
B1020154921351N01544323EA0000001484
B1020204921354N01544261EA0000001482
B1020254921357N01544198EA0000001479
B1020304921357N01544137EA0000001476
B1020354921356N01544074EA0000001467
B1020404921357N01544014EA0000001458
B1020454921359N01543951EA0000001449
B1020504921362N01543889EA0000001446
B1020554921364N01543830EA0000001442
B1021004921363N01543768EA0000001433
B1021054921365N01543703EA0000001423
B1021104921366N01543638EA0000001411
B1021154921368N01543576EA0000001403
B1021204921373N01543513EA0000001398
B1021254921379N01543449EA0000001390
B1021304921385N01543386EA0000001381
B1021354921388N01543326EA0000001372
B1021404921388N01543265EA0000001364
B1021454921389N01543205EA0000001352
B1021504921389N01543144EA0000001341
B1021554921389N01543083EA0000001328
B1022004921392N01543024EA0000001310
B1022054921393N01542948EA0000001283
B1022104921401N01542886EA0000001291
B1022154921413N01542839EA0000001304
B1022204921447N01542825EA0000001313
B1022254921446N01542839EA0000001320
B1022304921438N01542812EA0000001324
B1022354921438N01542761EA0000001333
B1022404921452N01542712EA0000001336
B1022454921468N01542661EA0000001343
B1022504921487N01542622EA0000001344
B1022554921515N01542616EA0000001345
B1023004921518N01542640EA0000001341
B1023054921505N01542615EA0000001339
B1023104921497N01542578EA0000001341
B1023154921485N01542551EA0000001342
B1023204921465N01542540EA0000001341
B1023254921450N01542518EA0000001344
B1023304921432N01542506EA0000001346
B1023354921412N01542499EA0000001352
B1023404921398N01542492EA0000001367
B1023454921388N01542458EA0000001385
B1023504921414N01542422EA0000001405
B1023554921418N01542435EA0000001415
B1024004921414N01542441EA0000001433
B1024054921404N01542423EA0000001448
B1024104921407N01542372EA0000001467
B1024154921434N01542362EA0000001481
B1024204921425N01542363EA0000001499
B1024254921424N01542317EA0000001519
B1024304921453N01542297EA0000001535
B1024354921454N01542316EA0000001548
B1024404921440N01542306EA0000001568
B1024454921452N01542266EA0000001578
B1024504921479N01542275EA0000001590
B1024554921482N01542289EA0000001604
B1025004921464N01542264EA0000001611
B1025054921455N01542235EA0000001623
B1025104921480N01542206EA0000001634
B1025154921495N01542234EA0000001647
B1025204921479N01542246EA0000001656
B1025254921460N01542238EA0000001662
B1025304921448N01542236EA0000001666
B1025354921440N01542212EA0000001657
B1025404921447N01542174EA0000001659
B1025454921455N01542136EA0000001660
B1025504921455N01542100EA0000001661
B1025554921453N01542066EA0000001665
B1026004921454N01542034EA0000001668
B1026054921457N01541992EA0000001663
B1026104921454N01541951EA0000001657
B1026154921449N01541912EA0000001654
B1026204921439N01541882EA0000001652
B1026254921432N01541850EA0000001645
B1026304921434N01541795EA0000001640
B1026354921443N01541741EA0000001639
B1026404921450N01541671EA0000001641
B1026454921459N01541613EA0000001656
B1026504921484N01541598EA0000001664
B1026554921477N01541600EA0000001672
B1027004921467N01541551EA0000001680
B1027054921469N01541488EA0000001693
B1027104921472N01541423EA0000001702
B1027154921480N01541360EA0000001716
B1027204921488N01541300EA0000001720
B1027254921495N01541233EA0000001719
B1027304921503N01541173EA0000001712
B1027354921508N01541114EA0000001709
B1027404921513N01541059EA0000001706
B1027454921517N01541009EA0000001706
B1027504921516N01540955EA0000001701
B1027554921518N01540901EA0000001700
B1028004921524N01540846EA0000001703
B1028054921529N01540787EA0000001706
B1028104921534N01540724EA0000001709
B1028154921535N01540660EA0000001706
B1028204921536N01540596EA0000001702
B1028254921533N01540537EA0000001696
B1028304921535N01540480EA0000001690
B1028354921545N01540417EA0000001683
B1028404921558N01540360EA0000001686
B1028454921575N01540303EA0000001677
B1028504921586N01540247EA0000001670
B1028554921586N01540190EA0000001660
B1029004921584N01540130EA0000001649
B1029054921584N01540069EA0000001645
B1029104921579N01540011EA0000001644
B1029154921573N01539951EA0000001654
B1029204921565N01539896EA0000001663
B1029254921558N01539837EA0000001664
B1029304921554N01539775EA0000001667
B1029354921549N01539711EA0000001671
B1029404921545N01539646EA0000001667
B1029454921540N01539578EA0000001661
B1029504921538N01539517EA0000001657
B1029554921540N01539454EA0000001661
B1030004921546N01539392EA0000001659
B1030054921549N01539330EA0000001655
B1030104921552N01539267EA0000001647
B1030154921554N01539209EA0000001637
B1030204921557N01539149EA0000001630
B1030254921561N01539089EA0000001616
B1030304921565N01539030EA0000001606
B1030354921573N01538971EA0000001594
B1030404921576N01538917EA0000001587
B1030454921577N01538854EA0000001573
B1030504921581N01538792EA0000001558
B1030554921588N01538735EA0000001552
B1031004921593N01538677EA0000001543
B1031054921591N01538612EA0000001532
B1031104921584N01538546EA0000001524
B1031154921578N01538473EA0000001507
B1031204921569N01538403EA0000001495
B1031254921558N01538331EA0000001486
B1031304921550N01538263EA0000001475
B1031354921545N01538191EA0000001464
B1031404921543N01538132EA0000001458
B1031454921543N01538073EA0000001455
B1031504921544N01538012EA0000001449
B1031554921543N01537952EA0000001445
B1032004921544N01537892EA0000001448
B1032054921544N01537839EA0000001448
B1032104921547N01537784EA0000001445
B1032154921553N01537722EA0000001436
B1032204921558N01537657EA0000001426
B1032254921561N01537590EA0000001425
B1032304921561N01537525EA0000001427
B1032354921560N01537463EA0000001425
B1032404921559N01537400EA0000001421
B1032454921561N01537338EA0000001417
B1032504921565N01537270EA0000001412
B1032554921563N01537214EA0000001426
B1033004921579N01537158EA0000001435
B1033054921599N01537101EA0000001442
B1033104921622N01537048EA0000001444
B1033154921642N01536992EA0000001445
B1033204921662N01536931EA0000001440
B1033254921679N01536869EA0000001437
B1033304921694N01536807EA0000001432
B1033354921707N01536741EA0000001428
B1033404921717N01536679EA0000001425
B1033454921728N01536616EA0000001423
B1033504921739N01536554EA0000001423
B1033554921749N01536496EA0000001428
B1034004921758N01536435EA0000001433
B1034054921768N01536375EA0000001436
B1034104921781N01536313EA0000001437
B1034154921799N01536255EA0000001442
B1034204921821N01536203EA0000001449
B1034254921839N01536152EA0000001454
B1034304921848N01536096EA0000001460
B1034354921854N01536043EA0000001472
B1034404921847N01535998EA0000001480
B1034454921834N01535964EA0000001484
B1034504921814N01535958EA0000001492
B1034554921801N01535966EA0000001501
B1035004921777N01535952EA0000001505
B1035054921766N01535906EA0000001511
B1035104921784N01535861EA0000001518
B1035154921812N01535847EA0000001521
B1035204921829N01535865EA0000001526
B1035254921835N01535887EA0000001532
B1035304921832N01535894EA0000001541
B1035354921812N01535878EA0000001543
B1035404921789N01535844EA0000001551
B1035454921773N01535802EA0000001557
B1035504921766N01535745EA0000001563
B1035554921752N01535700EA0000001568
B1036004921736N01535663EA0000001574
B1036054921724N01535612EA0000001586
B1036104921735N01535551EA0000001590
B1036154921762N01535502EA0000001597
B1036204921790N01535482EA0000001602
B1036254921808N01535500EA0000001600
B1036304921797N01535505EA0000001601
B1036354921780N01535479EA0000001610
B1036404921770N01535431EA0000001619
B1036454921788N01535373EA0000001620
B1036504921811N01535329EA0000001623
B1036554921830N01535285EA0000001617
B1037004921840N01535230EA0000001607
B1037054921847N01535177EA0000001603
B1037104921858N01535122EA0000001595
B1037154921865N01535066EA0000001592
B1037204921870N01535006EA0000001584
B1037254921873N01534939EA0000001582
B1037304921876N01534871EA0000001592
B1037354921882N01534811EA0000001606
B1037404921903N01534786EA0000001618
B1037454921893N01534786EA0000001631
B1037504921873N01534738EA0000001647
B1037554921879N01534686EA0000001661
B1038004921898N01534682EA0000001676
B1038054921882N01534681EA0000001689
B1038104921858N01534642EA0000001700
B1038154921846N01534584EA0000001713
B1038204921856N01534529EA0000001717
B1038254921881N01534496EA0000001725
B1038304921901N01534485EA0000001743
B1038354921888N01534494EA0000001754
B1038404921876N01534445EA0000001766
B1038454921896N01534405EA0000001776
B1038504921913N01534402EA0000001788
B1038554921902N01534408EA0000001801
B1039004921892N01534355EA0000001811
B1039054921915N01534321EA0000001821
B1039104921916N01534331EA0000001834
B1039154921895N01534303EA0000001843
B1039204921890N01534243EA0000001855
B1039254921914N01534210EA0000001865
B1039304921918N01534227EA0000001876
B1039354921900N01534219EA0000001892
B1039404921886N01534162EA0000001899
B1039454921903N01534112EA0000001909
B1039504921924N01534107EA0000001920
B1039554921915N01534118EA0000001930
B1040004921895N01534072EA0000001940
B1040054921884N01534009EA0000001949
B1040104921877N01533952EA0000001962
B1040154921867N01533897EA0000001969
B1040204921854N01533841EA0000001970
B1040254921843N01533782EA0000001971
B1040304921833N01533720EA0000001975
B1040354921826N01533657EA0000001973
B1040404921828N01533597EA0000001965
B1040454921824N01533522EA0000001943
B1040504921820N01533451EA0000001934
B1040554921814N01533378EA0000001919
B1041004921808N01533306EA0000001906
B1041054921801N01533237EA0000001897
B1041104921793N01533165EA0000001886
B1041154921786N01533097EA0000001876
B1041204921778N01533029EA0000001867
B1041254921769N01532963EA0000001854
B1041304921758N01532898EA0000001847
B1041354921746N01532831EA0000001839
B1041404921735N01532768EA0000001834
B1041454921722N01532705EA0000001828
B1041504921709N01532642EA0000001822
B1041554921693N01532581EA0000001816
B1042004921679N01532517EA0000001810
B1042054921668N01532448EA0000001800
B1042104921661N01532380EA0000001793
B1042154921656N01532309EA0000001786
B1042204921651N01532237EA0000001775
B1042254921646N01532163EA0000001767
B1042304921643N01532092EA0000001757
B1042354921640N01532020EA0000001749
B1042404921637N01531950EA0000001738
B1042454921631N01531882EA0000001726
B1045084921639N01530214EA0000001630
B1045134921635N01530156EA0000001643
B1045184921639N01530099EA0000001648
B1045234921651N01530044EA0000001658
B1045284921671N01530004EA0000001664
B1045334921701N01529995EA0000001667
B1045384921711N01530006EA0000001668
B1045434921699N01530006EA0000001666
B1045484921688N01529989EA0000001665
B1045534921674N01529957EA0000001668
B1045584921661N01529922EA0000001681
B1046034921648N01529898EA0000001693
B1046084921636N01529901EA0000001694
B1046134921628N01529908EA0000001707
B1046184921622N01529918EA0000001712
B1046234921615N01529930EA0000001721
B1046284921604N01529926EA0000001734
B1046334921590N01529882EA0000001735
B1046384921578N01529836EA0000001746
B1046434921595N01529796EA0000001752
B1046484921620N01529797EA0000001753
B1046534921629N01529815EA0000001767
B1046584921628N01529832EA0000001776
B1047034921615N01529832EA0000001787
B1047084921610N01529790EA0000001799
B1047134921634N01529767EA0000001804
B1047184921641N01529789EA0000001816
B1047234921628N01529790EA0000001824
B1047284921614N01529765EA0000001837
B1047334921600N01529739EA0000001847
B1047384921583N01529703EA0000001850
B1047434921566N01529664EA0000001866
B1047484921557N01529610EA0000001866
B1047534921554N01529560EA0000001873
B1047584921543N01529526EA0000001882
B1048034921525N01529503EA0000001888
B1048084921510N01529474EA0000001901
B1048134921493N01529446EA0000001909
B1048184921476N01529413EA0000001917
B1048234921462N01529375EA0000001929
B1048284921450N01529339EA0000001949
B1048334921435N01529297EA0000001967
B1048384921421N01529256EA0000001982
B1048434921412N01529205EA0000001988
B1048484921400N01529152EA0000001991
B1048534921392N01529093EA0000001988
B1048584921382N01529030EA0000001980
B1049034921371N01528969EA0000001972
B1049084921361N01528906EA0000001958
B1049134921358N01528845EA0000001951
B1049184921349N01528778EA0000001939
B1049234921338N01528703EA0000001915
B1049284921328N01528626EA0000001899
B1049334921317N01528547EA0000001884
B1049384921307N01528473EA0000001874
B1049434921292N01528411EA0000001862
B1049484921274N01528340EA0000001848
B1049534921259N01528268EA0000001841
B1049584921245N01528192EA0000001827
B1050034921233N01528114EA0000001813
B1050084921221N01528037EA0000001799
B1050134921208N01527960EA0000001785
B1050184921195N01527889EA0000001772
B1050234921182N01527818EA0000001758
B1050284921171N01527747EA0000001746
B1050334921158N01527679EA0000001736
B1050384921144N01527611EA0000001725
B1050434921129N01527544EA0000001710
B1050484921116N01527479EA0000001702
B1050534921106N01527419EA0000001697
B1050584921098N01527363EA0000001690
B1051034921089N01527303EA0000001683
B1051084921076N01527234EA0000001671
B1051134921063N01527169EA0000001663
B1051184921048N01527103EA0000001646
B1051234921034N01527038EA0000001633
B1051284921019N01526980EA0000001625
B1051334921003N01526921EA0000001610
B1051384920986N01526862EA0000001600
B1051434920972N01526804EA0000001594
B1051484920957N01526748EA0000001582
B1051534920939N01526695EA0000001571
B1051584920918N01526638EA0000001561
B1052034920905N01526583EA0000001562
B1052084920892N01526529EA0000001560
B1052134920879N01526475EA0000001561
B1052184920864N01526420EA0000001561
B1052234920850N01526363EA0000001564
B1052284920837N01526307EA0000001563
B1052334920822N01526251EA0000001569
B1052384920804N01526197EA0000001581
B1052434920787N01526148EA0000001590
B1052484920768N01526108EA0000001594
B1052534920748N01526063EA0000001602
B1052584920729N01526018EA0000001611
B1053034920708N01525974EA0000001617
B1053084920688N01525928EA0000001623
B1053134920669N01525884EA0000001629
B1053184920650N01525836EA0000001631
B1053234920628N01525788EA0000001628
B1053284920606N01525737EA0000001626
B1053334920591N01525683EA0000001622
B1053384920574N01525630EA0000001612
B1053434920561N01525573EA0000001603
B1053484920553N01525509EA0000001594
B1053534920545N01525445EA0000001588
B1053584920540N01525383EA0000001584
B1054034920537N01525323EA0000001581
B1054084920539N01525260EA0000001575
B1054134920542N01525195EA0000001579
B1054184920540N01525130EA0000001588
B1054234920538N01525062EA0000001592
B1054284920545N01524997EA0000001595
B1054334920554N01524933EA0000001590
B1054384920560N01524867EA0000001585
B1054434920566N01524805EA0000001582
B1054484920570N01524737EA0000001576
B1054534920571N01524669EA0000001573
B1054584920569N01524600EA0000001572
B1055034920564N01524535EA0000001573
B1055084920559N01524473EA0000001568
B1055134920553N01524411EA0000001562
B1055184920545N01524352EA0000001556
B1055234920539N01524289EA0000001550
B1055284920533N01524228EA0000001546
B1055334920528N01524165EA0000001540
B1055384920527N01524105EA0000001536
B1055434920527N01524042EA0000001531
B1055484920523N01523984EA0000001522
B1055534920520N01523926EA0000001516
B1055584920516N01523867EA0000001507
B1056034920513N01523807EA0000001498
B1056084920509N01523751EA0000001491
B1056134920507N01523692EA0000001483
B1056184920502N01523635EA0000001476
B1056234920497N01523578EA0000001470
B1056284920494N01523517EA0000001459
B1056334920493N01523457EA0000001448
B1056384920494N01523395EA0000001437
B1056424920493N01523345EA0000001431
B1056504920490N01523249EA0000001408
B1056554920485N01523191EA0000001393
B1057004920485N01523126EA0000001379
B1057054920489N01523050EA0000001357
B1057104920496N01522981EA0000001340
B1057154920501N01522911EA0000001325
B1057204920502N01522838EA0000001307
B1057254920503N01522765EA0000001295
B1057304920508N01522692EA0000001280
B1057354920514N01522621EA0000001272
B1057404920520N01522548EA0000001256
B1057454920526N01522477EA0000001248
B1057504920534N01522406EA0000001234
B1057554920540N01522335EA0000001223
B1058004920549N01522263EA0000001214
B1058054920562N01522195EA0000001203
B1058104920572N01522124EA0000001193
B1058154920582N01522056EA0000001180
B1058204920592N01521984EA0000001173
B1058254920600N01521922EA0000001171
B1058304920611N01521854EA0000001161
B1058354920623N01521791EA0000001160
B1058404920638N01521728EA0000001160
B1058454920652N01521669EA0000001156
B1058504920666N01521609EA0000001147
B1058554920681N01521553EA0000001141
B1059004920697N01521494EA0000001144
B1059054920714N01521434EA0000001142
B1059104920733N01521389EA0000001149
B1059154920758N01521346EA0000001147
B1059204920778N01521291EA0000001142
B1059254920802N01521234EA0000001139
B1059304920826N01521173EA0000001139
B1059354920849N01521120EA0000001148
B1059404920880N01521088EA0000001146
B1059454920918N01521058EA0000001148
B1059504920957N01521037EA0000001149
B1059554920994N01521027EA0000001153
B1100004921022N01521031EA0000001150
B1100054921028N01521045EA0000001146
B1100104921015N01521021EA0000001142
B1100154921018N01520953EA0000001134
B1100204921024N01520882EA0000001129
B1100254921030N01520823EA0000001132
B1100304921036N01520764EA0000001123
B1100354921046N01520699EA0000001113
B1100404921055N01520629EA0000001105
B1100454921056N01520563EA0000001109
B1100504921051N01520495EA0000001113
B1100554921059N01520436EA0000001121
B1101004921081N01520421EA0000001125
B1101054921069N01520424EA0000001130
B1101104921049N01520380EA0000001137
B1101154921052N01520322EA0000001145
B1101204921073N01520267EA0000001153
B1101254921098N01520246EA0000001162
B1101304921091N01520249EA0000001166
B1101354921070N01520208EA0000001175
B1101404921066N01520154EA0000001182
B1101454921080N01520092EA0000001188
B1101504921102N01520043EA0000001196
B1101554921124N01520033EA0000001201
B1102004921112N01520034EA0000001203
B1102054921092N01519986EA0000001209
B1102104921081N01519929EA0000001217
B1102154921082N01519869EA0000001222
B1102204921099N01519826EA0000001225
B1102254921118N01519827EA0000001227
B1102304921123N01519849EA0000001231
B1102354921112N01519859EA0000001240
B1102404921089N01519826EA0000001246
B1102454921079N01519771EA0000001252
B1102504921076N01519714EA0000001256
B1102554921079N01519657EA0000001259
B1103004921089N01519600EA0000001263
B1103054921101N01519541EA0000001271
B1103104921113N01519485EA0000001284
B1103154921125N01519429EA0000001290
B1103204921136N01519368EA0000001299
B1103254921147N01519301EA0000001305
B1103304921167N01519246EA0000001316
B1103354921191N01519231EA0000001325
B1103404921186N01519243EA0000001337
B1103454921167N01519201EA0000001348
B1103504921180N01519141EA0000001352
B1103554921215N01519103EA0000001355
B1104004921247N01519081EA0000001369
B1104054921276N01519059EA0000001376
B1104104921301N01519020EA0000001385
B1104154921325N01518981EA0000001394
B1104204921356N01518967EA0000001411
B1104254921369N01518978EA0000001420
B1104304921349N01518966EA0000001427
B1104354921339N01518929EA0000001446
B1104404921364N01518884EA0000001453
B1104454921394N01518852EA0000001466
B1104504921412N01518865EA0000001475
B1104554921407N01518890EA0000001486
B1105004921388N01518873EA0000001496
B1105054921394N01518822EA0000001506
B1105104921421N01518786EA0000001516
B1105154921445N01518787EA0000001527
B1105204921436N01518806EA0000001533
B1105254921416N01518793EA0000001546
B1105304921408N01518742EA0000001556
B1105354921429N01518703EA0000001565
B1105404921446N01518715EA0000001576
B1105454921428N01518719EA0000001584
B1105504921407N01518702EA0000001597
B1105554921395N01518651EA0000001610
B1106004921413N01518609EA0000001622
B1106054921425N01518617EA0000001631
B1106104921406N01518610EA0000001643
B1106154921390N01518560EA0000001655
B1106204921392N01518506EA0000001670
B1106254921412N01518494EA0000001681
B1106304921404N01518502EA0000001693
B1106354921378N01518479EA0000001704
B1106404921360N01518432EA0000001719
B1106454921376N01518388EA0000001733
B1106504921382N01518394EA0000001745
B1106554921362N01518384EA0000001755
B1107004921350N01518331EA0000001762
B1107054921364N01518276EA0000001769
B1107104921375N01518219EA0000001774
B1107154921376N01518168EA0000001775
B1107204921383N01518108EA0000001767
B1107234921387N01518071EA0000001767
B1107304921379N01517987EA0000001763
B1107354921364N01517939EA0000001759
B1107404921372N01517885EA0000001755
B1107454921388N01517831EA0000001753
B1107504921405N01517775EA0000001750
B1107544921415N01517726EA0000001744
B1108024921432N01517623EA0000001732
B1108074921447N01517560EA0000001721
B1108124921466N01517484EA0000001712
B1108174921488N01517408EA0000001702
B1108224921506N01517337EA0000001694
B1108274921524N01517263EA0000001677
B1108324921541N01517185EA0000001664
B1108374921556N01517110EA0000001654
B1108424921573N01517034EA0000001635
B1108474921589N01516961EA0000001623
B1108524921607N01516888EA0000001611
B1108574921625N01516814EA0000001597
B1109024921641N01516737EA0000001583
B1109074921657N01516664EA0000001575
B1109124921672N01516589EA0000001559
B1109174921687N01516514EA0000001545
B1109224921706N01516442EA0000001528
B1109274921726N01516372EA0000001510
B1109324921749N01516303EA0000001495
B1109374921771N01516230EA0000001476
B1109424921793N01516157EA0000001462
B1109474921818N01516085EA0000001448
B1109524921845N01516012EA0000001434
B1109574921872N01515943EA0000001423
B1110024921899N01515878EA0000001409
B1110074921928N01515809EA0000001396
B1110124921961N01515741EA0000001382
B1110174921993N01515685EA0000001383
B1110224922020N01515629EA0000001379
B1110274922045N01515572EA0000001377
B1110324922067N01515518EA0000001376
B1110374922088N01515462EA0000001374
B1110424922108N01515409EA0000001371
B1110474922128N01515357EA0000001363
B1110524922151N01515308EA0000001364
B1110574922171N01515256EA0000001369
B1111024922188N01515203EA0000001375
B1111074922212N01515166EA0000001382
B1111124922243N01515152EA0000001386
B1111174922272N01515147EA0000001391
B1111224922301N01515137EA0000001393
B1111274922331N01515108EA0000001394
B1111324922356N01515060EA0000001395
B1111374922377N01515008EA0000001395
B1111424922397N01514957EA0000001402
B1111474922423N01514918EA0000001405
B1111524922452N01514898EA0000001405
B1111574922479N01514859EA0000001404
B1112024922498N01514811EA0000001408
B1112074922514N01514751EA0000001408
B1112124922529N01514693EA0000001415
B1112174922543N01514639EA0000001416
B1112224922555N01514580EA0000001414
B1112274922568N01514522EA0000001410
B1112324922582N01514461EA0000001407
B1112374922598N01514398EA0000001407
B1112424922614N01514334EA0000001406
B1112474922632N01514272EA0000001409
B1112524922653N01514214EA0000001410
B1112574922670N01514164EA0000001418
B1113024922690N01514118EA0000001417
B1113074922712N01514063EA0000001424
B1113124922740N01514037EA0000001433
B1113174922751N01514052EA0000001436
B1113224922739N01514020EA0000001445
B1113274922750N01513962EA0000001454
B1113324922762N01513901EA0000001455
B1113374922778N01513848EA0000001471
B1113424922804N01513849EA0000001475
B1113444922808N01513857EA0000001477
B1113524922792N01513832EA0000001494
B1113574922798N01513768EA0000001501
B1114024922819N01513716EA0000001510
B1114074922851N01513684EA0000001519
B1114124922875N01513686EA0000001523
B1114174922862N01513686EA0000001531
B1114224922857N01513633EA0000001534
B1114274922867N01513574EA0000001544
B1114324922886N01513518EA0000001555
B1114374922916N01513501EA0000001555
B1114424922923N01513510EA0000001557
B1114474922907N01513480EA0000001558
B1114524922911N01513417EA0000001564
B1114574922924N01513356EA0000001567
B1115024922941N01513299EA0000001565
B1115074922960N01513240EA0000001559
B1115124922983N01513179EA0000001555
B1115174923002N01513117EA0000001549
B1115224923017N01513062EA0000001541
B1115274923036N01513009EA0000001536
B1115324923055N01512952EA0000001529
B1115374923070N01512896EA0000001525
B1115424923086N01512839EA0000001522
B1115474923104N01512780EA0000001515
B1115524923123N01512722EA0000001509
B1115574923143N01512663EA0000001501
B1116024923162N01512602EA0000001498
B1116074923182N01512541EA0000001494
B1116124923205N01512482EA0000001494
B1116174923229N01512426EA0000001495
B1116224923252N01512370EA0000001498
B1116274923277N01512314EA0000001504
B1116324923299N01512264EA0000001517
B1116374923322N01512219EA0000001528
B1116424923348N01512203EA0000001545
B1116474923346N01512219EA0000001556
B1116524923335N01512184EA0000001571
B1116574923333N01512132EA0000001583
B1117024923345N01512087EA0000001603
B1117074923365N01512092EA0000001621
B1117124923349N01512093EA0000001636
B1117174923335N01512051EA0000001650
B1117224923337N01511998EA0000001667
B1117274923367N01511970EA0000001677
B1117324923374N01511991EA0000001692
B1117374923354N01511964EA0000001707
B1117424923355N01511912EA0000001724
B1117474923386N01511882EA0000001738
B1117524923394N01511900EA0000001756
B1117574923377N01511871EA0000001771
B1118024923378N01511821EA0000001789
B1118074923407N01511793EA0000001801
B1118124923406N01511810EA0000001817
B1118174923394N01511776EA0000001831
B1118224923399N01511721EA0000001847
B1118274923426N01511692EA0000001860
B1118324923436N01511709EA0000001875
B1118374923418N01511688EA0000001892
B1118424923418N01511630EA0000001903
B1118444923420N01511605EA0000001908
B1118524923441N01511509EA0000001931
B1118574923462N01511467EA0000001945
B1119024923474N01511479EA0000001955
B1119074923454N01511467EA0000001966
B1119124923441N01511425EA0000001985
B1119174923442N01511370EA0000001999
B1119224923454N01511312EA0000002012
B1119274923471N01511261EA0000002022
B1119324923485N01511206EA0000002034
B1119374923499N01511152EA0000002041
B1119424923517N01511101EA0000002051
B1119474923538N01511050EA0000002058
B1119524923558N01511000EA0000002066
B1119574923581N01510948EA0000002065
B1120024923601N01510899EA0000002065
B1120074923622N01510847EA0000002061
B1120124923641N01510791EA0000002062
B1120174923658N01510734EA0000002062
B1120224923674N01510675EA0000002065
B1120274923692N01510615EA0000002071
B1120324923704N01510557EA0000002077
B1120374923713N01510504EA0000002078
B1120424923725N01510438EA0000002067
B1120474923737N01510375EA0000002067
B1120524923750N01510307EA0000002060
B1120574923766N01510240EA0000002051
B1121024923779N01510177EA0000002051
B1121074923793N01510104EA0000002040
B1121124923807N01510035EA0000002034
B1121174923821N01509968EA0000002028
B1121224923836N01509895EA0000002017
B1121274923850N01509823EA0000002007
B1121324923863N01509751EA0000001994
B1121374923876N01509676EA0000001981
B1121424923889N01509601EA0000001967
B1121474923903N01509529EA0000001961
B1121524923915N01509456EA0000001949
B1121574923928N01509387EA0000001938
B1122024923940N01509319EA0000001929
B1122074923948N01509259EA0000001926
B1122124923954N01509204EA0000001919
B1122174923962N01509141EA0000001910
B1122224923973N01509074EA0000001903
B1122274923981N01509000EA0000001889
B1122324923992N01508925EA0000001874
B1122374924000N01508859EA0000001878
B1122424924005N01508794EA0000001873
B1122474924013N01508731EA0000001874
B1122524924021N01508664EA0000001864
B1122574924036N01508600EA0000001862
B1123024924045N01508532EA0000001852
B1123074924054N01508459EA0000001846
B1123124924064N01508385EA0000001839
B1123174924075N01508315EA0000001831
B1123224924086N01508241EA0000001816
B1123274924091N01508167EA0000001802
B1123324924094N01508094EA0000001781
B1123374924100N01508019EA0000001768
B1123424924105N01507944EA0000001753
B1123474924113N01507868EA0000001738
B1123524924122N01507792EA0000001728
B1123574924129N01507720EA0000001719
B1124024924131N01507657EA0000001718
B1124074924129N01507586EA0000001709
B1124124924127N01507512EA0000001699
B1124174924126N01507444EA0000001697
B1124224924133N01507382EA0000001696
B1124274924139N01507311EA0000001690
B1124324924141N01507240EA0000001690
B1124374924135N01507176EA0000001699
B1124424924131N01507115EA0000001711
B1124474924127N01507057EA0000001722
B1124524924121N01507001EA0000001731
B1124574924115N01506943EA0000001747
B1125024924139N01506908EA0000001761
B1125074924137N01506920EA0000001779
B1125124924122N01506882EA0000001794
B1125174924134N01506831EA0000001813
B1125224924156N01506832EA0000001823
B1125274924139N01506834EA0000001836
B1125324924118N01506803EA0000001856
B1125374924127N01506751EA0000001871
B1125424924149N01506749EA0000001887
B1125474924136N01506753EA0000001903
B1125524924124N01506713EA0000001922
B1125574924147N01506667EA0000001937
B1126024924163N01506668EA0000001954
B1126074924144N01506658EA0000001968
B1126124924133N01506613EA0000001987
B1126174924150N01506564EA0000002001
B1126224924165N01506569EA0000002017
B1126274924144N01506553EA0000002032
B1126324924135N01506506EA0000002048
B1126374924163N01506471EA0000002061
B1126424924169N01506484EA0000002080
B1126474924151N01506454EA0000002097
B1126524924155N01506399EA0000002115
B1126574924182N01506357EA0000002132
B1127024924195N01506369EA0000002149
B1127074924180N01506337EA0000002163
B1127124924180N01506279EA0000002179
B1127174924197N01506208EA0000002186
B1127224924220N01506143EA0000002201
B1127274924244N01506078EA0000002206
B1127324924266N01506014EA0000002212
B1127374924288N01505952EA0000002216
B1127424924308N01505882EA0000002217
B1127474924330N01505816EA0000002224
B1127524924352N01505747EA0000002229
B1127574924373N01505683EA0000002235
B1128024924393N01505617EA0000002244
B1128074924410N01505546EA0000002249
B1128124924431N01505479EA0000002254
B1128174924451N01505412EA0000002264
B1128224924473N01505351EA0000002261
B1128274924490N01505286EA0000002258
B1128324924506N01505233EA0000002261
B1128374924524N01505167EA0000002256
B1128424924536N01505100EA0000002256
B1128474924546N01505039EA0000002261
B1128524924543N01504975EA0000002257
B1128574924539N01504910EA0000002253
B1129024924535N01504839EA0000002241
B1129074924531N01504767EA0000002227
B1129124924527N01504695EA0000002210
B1129174924526N01504622EA0000002197
B1129224924524N01504544EA0000002182
B1129274924520N01504465EA0000002175
B1129334924514N01504374EA0000002162
B1129384924508N01504298EA0000002150
B1129434924501N01504223EA0000002136
B1129484924491N01504148EA0000002128
B1129534924478N01504075EA0000002117
B1129584924465N01504004EA0000002108
B1130034924450N01503934EA0000002101
B1130084924436N01503864EA0000002094
B1130134924426N01503792EA0000002085
B1130184924418N01503718EA0000002077
B1130234924412N01503646EA0000002071
B1130284924407N01503575EA0000002061
B1130334924402N01503506EA0000002054
B1130384924399N01503432EA0000002044
B1130434924398N01503361EA0000002038
B1130484924394N01503287EA0000002026
B1130534924389N01503216EA0000002021
B1130584924385N01503142EA0000002016
B1131034924379N01503069EA0000002007
B1131084924378N01502997EA0000002004
B1131134924380N01502922EA0000001993
B1131184924383N01502850EA0000001988
B1131234924380N01502776EA0000001977
B1131284924378N01502704EA0000001970
B1131334924372N01502630EA0000001960
B1131384924366N01502557EA0000001954
B1131434924360N01502488EA0000001944
B1131484924352N01502418EA0000001932
B1131534924346N01502349EA0000001917
B1131584924343N01502276EA0000001908
B1132034924341N01502207EA0000001897
B1132084924336N01502137EA0000001882
B1132134924327N01502074EA0000001871
B1132184924312N01502014EA0000001858
B1132234924298N01501949EA0000001842
B1132284924295N01501877EA0000001821
B1132334924297N01501798EA0000001805
B1132384924310N01501721EA0000001786
B1132434924331N01501653EA0000001777
B1132484924358N01501596EA0000001763
B1132534924391N01501543EA0000001755
B1132584924424N01501496EA0000001744
B1133034924456N01501454EA0000001734
B1133084924490N01501416EA0000001724
B1133134924526N01501377EA0000001712
B1133184924561N01501337EA0000001699
B1133234924595N01501293EA0000001694
B1133284924628N01501249EA0000001687
B1133334924660N01501204EA0000001678
B1133384924692N01501158EA0000001674
B1133434924724N01501112EA0000001661
B1133484924757N01501063EA0000001652
B1133534924791N01501014EA0000001641
B1133584924823N01500969EA0000001627
B1134034924854N01500925EA0000001614
B1134084924886N01500884EA0000001603
B1134134924919N01500836EA0000001595
B1134184924950N01500784EA0000001588
B1134234924981N01500732EA0000001582
B1134284925011N01500681EA0000001574
B1134334925035N01500631EA0000001572
B1134384925060N01500579EA0000001568
B1134434925086N01500530EA0000001568
B1134484925112N01500483EA0000001568
B1134534925140N01500438EA0000001568
B1134584925167N01500389EA0000001569
B1135034925193N01500343EA0000001580
B1135084925217N01500297EA0000001581
B1135134925242N01500247EA0000001589
B1135184925270N01500202EA0000001593
B1135234925293N01500155EA0000001593
B1135284925314N01500099EA0000001589
B1135334925331N01500043EA0000001584
B1135384925347N01459981EA0000001582
B1135434925363N01459918EA0000001582
B1135484925377N01459856EA0000001578
B1135534925391N01459804EA0000001573
B1135584925400N01459746EA0000001571
B1136034925412N01459694EA0000001572
B1136084925426N01459643EA0000001575
B1136134925442N01459591EA0000001572
B1136184925457N01459540EA0000001570
B1136234925491N01459475EA0000001568
B1136284925481N01459436EA0000001563
B1136334925472N01459401EA0000001559
B1136384925520N01459331EA0000001552
B1136434925537N01459278EA0000001546
B1136484925555N01459225EA0000001538
B1136534925575N01459173EA0000001532
B1136584925596N01459121EA0000001523
B1137034925618N01459069EA0000001515
B1137084925641N01459014EA0000001507
B1137134925661N01458963EA0000001503
B1137184925681N01458912EA0000001494
B1137234925699N01458858EA0000001480
B1137284925715N01458804EA0000001470
B1137334925733N01458744EA0000001460
B1137384925756N01458678EA0000001445
B1137434925782N01458618EA0000001434
B1137484925808N01458556EA0000001427
B1137534925830N01458498EA0000001423
B1137584925850N01458444EA0000001423
B1138034925872N01458392EA0000001420
B1138084925891N01458338EA0000001419
B1138134925910N01458281EA0000001420
B1138184925930N01458221EA0000001422
B1138234925944N01458158EA0000001426
B1138284925964N01458094EA0000001426
B1138334925984N01458035EA0000001437
B1138384925990N01457978EA0000001441
B1138434925964N01457960EA0000001445
B1138484925952N01457919EA0000001451
B1138534925975N01457871EA0000001455
B1138584925998N01457847EA0000001452
B1139034926028N01457850EA0000001457
B1139084926039N01457861EA0000001463
B1139134926023N01457840EA0000001467
B1139184926022N01457779EA0000001467
B1139234926037N01457732EA0000001473
B1139284926071N01457705EA0000001476
B1139334926101N01457698EA0000001482
B1139384926127N01457706EA0000001482
B1139434926135N01457719EA0000001480
B1139484926120N01457718EA0000001470
B1139534926106N01457673EA0000001460
B1139584926106N01457616EA0000001458
B1140034926107N01457562EA0000001458
B1140084926110N01457503EA0000001458
B1140134926114N01457446EA0000001462
B1140184926119N01457387EA0000001464
B1140234926124N01457329EA0000001466
B1140284926129N01457272EA0000001463
B1140334926138N01457213EA0000001461
B1140384926151N01457153EA0000001458
B1140434926166N01457092EA0000001457
B1140484926183N01457028EA0000001453
B1140534926200N01456962EA0000001451
B1140584926217N01456899EA0000001445
B1141034926234N01456825EA0000001428
B1141084926254N01456747EA0000001409
B1141134926275N01456668EA0000001390
B1141184926296N01456591EA0000001377
B1141234926316N01456514EA0000001361
B1141284926334N01456435EA0000001346
B1141334926350N01456364EA0000001336
B1141384926366N01456288EA0000001325
B1141434926377N01456231EA0000001325
B1141484926383N01456168EA0000001316
B1141534926386N01456104EA0000001309
B1141584926385N01456042EA0000001310
B1142034926380N01455980EA0000001315
B1142084926379N01455926EA0000001321
B1142134926380N01455862EA0000001326
B1142184926390N01455814EA0000001332
B1142234926414N01455802EA0000001333
B1142284926423N01455816EA0000001339
B1142334926407N01455810EA0000001339
B1142384926387N01455760EA0000001340
B1142434926375N01455705EA0000001349
B1142484926360N01455652EA0000001361
B1142534926369N01455600EA0000001370
B1142584926379N01455603EA0000001378
B1143034926354N01455596EA0000001390
B1143084926327N01455566EA0000001400
B1143134926317N01455506EA0000001407
B1143184926334N01455445EA0000001417
B1143234926350N01455442EA0000001432
B1143284926330N01455427EA0000001441
B1143334926321N01455360EA0000001448
B1143384926334N01455300EA0000001457
B1143434926355N01455275EA0000001474
B1143484926349N01455281EA0000001483
B1143534926328N01455233EA0000001495
B1143584926329N01455171EA0000001503
B1144034926355N01455120EA0000001510
B1144084926374N01455097EA0000001517
B1144134926371N01455106EA0000001519
B1144184926349N01455079EA0000001526
B1144234926344N01455013EA0000001532
B1144284926363N01454958EA0000001538
B1144334926386N01454917EA0000001538
B1144384926417N01454886EA0000001541
B1144434926449N01454868EA0000001544
B1144484926478N01454855EA0000001555
B1144534926487N01454872EA0000001556
B1144584926464N01454849EA0000001556
B1145034926463N01454786EA0000001564
B1145084926480N01454740EA0000001572
B1145134926511N01454740EA0000001570
B1145184926530N01454754EA0000001575
B1145234926552N01454765EA0000001576
B1145284926581N01454752EA0000001583
B1145334926597N01454712EA0000001590
B1145384926584N01454665EA0000001595
B1145434926568N01454665EA0000001604
B1145484926585N01454678EA0000001607
B1145534926617N01454663EA0000001614
B1145584926644N01454624EA0000001622
B1146034926662N01454578EA0000001634
B1146084926657N01454529EA0000001644
B1146134926643N01454526EA0000001653
B1146184926663N01454539EA0000001658
B1146234926691N01454521EA0000001669
B1146284926712N01454469EA0000001670
B1146334926726N01454414EA0000001675
B1146384926731N01454347EA0000001673
B1146434926725N01454280EA0000001679
B1146484926718N01454212EA0000001687
B1146534926715N01454154EA0000001698
B1146584926711N01454102EA0000001706
B1147034926707N01454042EA0000001712
B1147084926706N01453989EA0000001725
B1147134926729N01453961EA0000001730
B1147184926730N01453975EA0000001740
B1147234926709N01453961EA0000001743
B1147284926691N01453914EA0000001750
B1147334926695N01453855EA0000001764
B1147384926714N01453852EA0000001769
B1147434926696N01453845EA0000001776
B1147484926685N01453785EA0000001790
B1147534926699N01453735EA0000001806
B1147584926703N01453743EA0000001814
B1148034926680N01453706EA0000001821
B1148084926670N01453647EA0000001840
B1148134926691N01453607EA0000001851
B1148184926695N01453612EA0000001865
B1148234926673N01453585EA0000001878
B1148284926674N01453518EA0000001892
B1148334926688N01453457EA0000001902
B1148384926702N01453393EA0000001900
B1148434926713N01453323EA0000001899
B1148484926726N01453254EA0000001891
B1148534926743N01453187EA0000001884
B1148584926756N01453123EA0000001874
B1149034926770N01453059EA0000001868
B1149084926787N01452997EA0000001852
B1149134926809N01452933EA0000001832
B1149184926830N01452870EA0000001828
B1149234926851N01452806EA0000001830
B1149284926867N01452746EA0000001830
B1149334926884N01452678EA0000001829
B1149384926899N01452605EA0000001830
B1149434926915N01452539EA0000001834
B1149484926931N01452471EA0000001838
B1149534926945N01452415EA0000001852
B1149584926964N01452388EA0000001867
B1150034926963N01452400EA0000001874
B1150084926940N01452374EA0000001883
B1150134926940N01452304EA0000001894
B1150184926952N01452251EA0000001910
B1150234926962N01452250EA0000001914
B1150284926940N01452234EA0000001924
B1150334926937N01452168EA0000001930
B1150384926950N01452111EA0000001939
B1150434926968N01452043EA0000001935
B1150484926989N01451992EA0000001944
B1150534927007N01451932EA0000001940
B1150584927021N01451884EA0000001943
B1151034927032N01451834EA0000001943
B1151084927044N01451781EA0000001934
B1151134927053N01451729EA0000001931
B1151184927065N01451676EA0000001924
B1151234927076N01451618EA0000001921
B1151284927083N01451564EA0000001922
B1151334927093N01451502EA0000001916
B1151384927102N01451444EA0000001911
B1151434927115N01451388EA0000001899
B1151484927126N01451328EA0000001889
B1151534927143N01451270EA0000001881
B1151584927161N01451209EA0000001875
B1152034927179N01451148EA0000001875
B1152084927194N01451091EA0000001876
B1152134927208N01451030EA0000001869
B1152184927220N01450968EA0000001868
B1152234927239N01450900EA0000001859
B1152284927264N01450833EA0000001854
B1152334927283N01450762EA0000001857
B1152384927298N01450692EA0000001863
B1152434927311N01450633EA0000001869
B1152484927328N01450570EA0000001877
B1152534927342N01450512EA0000001883
B1152584927360N01450460EA0000001891
B1153034927375N01450408EA0000001889
B1153084927392N01450357EA0000001892
B1153134927410N01450306EA0000001886
B1153184927426N01450251EA0000001881
B1153234927442N01450197EA0000001876
B1153284927457N01450140EA0000001871
B1153334927474N01450082EA0000001867
B1153384927490N01450024EA0000001858
B1153434927505N01449967EA0000001850
B1153484927522N01449906EA0000001839
B1153534927539N01449840EA0000001827
B1153584927560N01449776EA0000001825
B1154034927586N01449711EA0000001814
B1154084927611N01449648EA0000001798
B1154134927635N01449585EA0000001787
B1154184927660N01449518EA0000001772
B1154234927678N01449452EA0000001770
B1154284927698N01449393EA0000001758
B1154334927715N01449338EA0000001756
B1154384927735N01449281EA0000001734
B1154434927758N01449216EA0000001710
B1154484927781N01449155EA0000001705
B1154534927802N01449098EA0000001693
B1154584927826N01449036EA0000001677
B1155034927852N01448971EA0000001664
B1155084927880N01448915EA0000001646
B1155134927909N01448860EA0000001628
B1155184927936N01448803EA0000001609
B1155234927961N01448746EA0000001594
B1155284927985N01448682EA0000001576
B1155334928008N01448615EA0000001562
B1155384928030N01448546EA0000001546
B1155434928054N01448475EA0000001524
B1155484928076N01448399EA0000001505
B1155534928098N01448325EA0000001489
B1155584928111N01448268EA0000001487
B1156034928115N01448209EA0000001470
B1156084928129N01448144EA0000001453
B1156134928150N01448070EA0000001440
B1156184928172N01448004EA0000001442
B1156234928195N01447945EA0000001440
B1156284928215N01447885EA0000001437
B1156334928229N01447824EA0000001438
B1156384928242N01447761EA0000001438
B1156434928254N01447698EA0000001441
B1156484928266N01447637EA0000001444
B1156534928279N01447574EA0000001449
B1156584928291N01447514EA0000001456
B1157034928303N01447458EA0000001463
B1157084928310N01447404EA0000001475
B1157134928322N01447354EA0000001491
B1157184928342N01447326EA0000001511
B1157234928353N01447350EA0000001523
B1157284928335N01447326EA0000001533
B1157334928331N01447281EA0000001553
B1157384928352N01447252EA0000001568
B1157434928355N01447278EA0000001588
B1157484928340N01447252EA0000001610
B1157534928355N01447215EA0000001624
B1157584928373N01447237EA0000001637
B1158034928360N01447248EA0000001660
B1158084928356N01447205EA0000001669
B1158134928373N01447163EA0000001686
B1158184928399N01447159EA0000001698
B1158234928394N01447182EA0000001716
B1158284928387N01447151EA0000001731
B1158334928412N01447128EA0000001746
B1158384928430N01447150EA0000001761
B1158434928413N01447146EA0000001772
B1158484928403N01447107EA0000001788
B1158534928412N01447069EA0000001805
B1158584928434N01447082EA0000001817
B1159034928419N01447093EA0000001830
B1159084928406N01447056EA0000001845
B1159134928413N01447014EA0000001860
B1159184928437N01447020EA0000001873
B1159234928436N01447047EA0000001888
B1159284928418N01447030EA0000001900
B1159334928413N01446986EA0000001912
B1159384928417N01446935EA0000001923
B1159434928417N01446885EA0000001936
B1159484928421N01446839EA0000001951
B1159534928423N01446787EA0000001960
B1159584928424N01446734EA0000001967
B1200034928427N01446680EA0000001983
B1200084928433N01446627EA0000001987
B1200134928443N01446569EA0000001989
B1200184928450N01446505EA0000001991
B1200234928458N01446439EA0000002004
B1200284928465N01446376EA0000002021
B1200334928473N01446319EA0000002034
B1200384928480N01446274EA0000002054
B1200434928487N01446223EA0000002063
B1200484928495N01446176EA0000002074
B1200534928506N01446124EA0000002077
B1200584928514N01446068EA0000002089
B1201034928521N01446013EA0000002103
B1201084928526N01445959EA0000002111
B1201134928533N01445909EA0000002121
B1201184928542N01445859EA0000002129
B1201234928547N01445807EA0000002132
B1201284928554N01445751EA0000002130
B1201334928565N01445693EA0000002125
B1201384928575N01445638EA0000002122
B1201424928583N01445598EA0000002121
B1201484928599N01445537EA0000002114
B1201534928609N01445480EA0000002113
B1201584928619N01445424EA0000002110
B1202034928629N01445366EA0000002107
B1202084928642N01445312EA0000002109
B1202134928653N01445257EA0000002107
B1202184928667N01445199EA0000002102
B1202234928679N01445139EA0000002100
B1202284928689N01445076EA0000002097
B1202334928695N01445010EA0000002091
B1202384928701N01444941EA0000002083
B1202434928708N01444873EA0000002077
B1202484928716N01444803EA0000002073
B1202534928723N01444734EA0000002073
B1202584928732N01444665EA0000002073
B1203034928740N01444597EA0000002076
B1203084928745N01444532EA0000002087
B1203134928750N01444484EA0000002076
B1203184928760N01444475EA0000002048
B1203234928743N01444457EA0000002048
B1203284928742N01444463EA0000002047
B1203334928772N01444448EA0000002049
B1203384928809N01444415EA0000002062
B1203434928832N01444359EA0000002067
B1203484928847N01444302EA0000002068
B1203534928852N01444234EA0000002059
B1203584928848N01444173EA0000002053
B1204034928846N01444106EA0000002041
B1204084928848N01444051EA0000002041
B1204134928849N01443986EA0000002029
B1204184928854N01443928EA0000002020
B1204234928856N01443875EA0000002020
B1204284928860N01443815EA0000002029
B1204334928866N01443759EA0000002021
B1204384928869N01443696EA0000002021
B1204434928868N01443634EA0000002022
B1204484928862N01443575EA0000002029
B1204534928846N01443522EA0000002024
B1204584928841N01443472EA0000002015
B1205034928840N01443413EA0000002011
B1205084928847N01443350EA0000002003
B1205134928855N01443290EA0000001995
B1205184928863N01443214EA0000001985
B1205234928873N01443149EA0000001988
B1205284928878N01443087EA0000001987
B1205334928882N01443032EA0000001999
B1205384928887N01442968EA0000002013
B1205434928893N01442909EA0000002026
B1205484928900N01442846EA0000002031
B1205534928907N01442776EA0000002042
B1205584928914N01442707EA0000002054
B1206034928924N01442643EA0000002068
B1206084928935N01442579EA0000002068
B1206134928947N01442508EA0000002072
B1206184928955N01442434EA0000002077
B1206234928963N01442354EA0000002078
B1206284928970N01442285EA0000002078
B1206334928981N01442222EA0000002082
B1206384928985N01442161EA0000002081
B1206434928990N01442091EA0000002074
B1206484928993N01442029EA0000002075
B1206534928998N01441964EA0000002074
B1206584929003N01441903EA0000002079
B1207034929010N01441852EA0000002077
B1207084929016N01441786EA0000002070
B1207134929022N01441723EA0000002065
B1207184929033N01441652EA0000002063
B1207234929044N01441595EA0000002070
B1207284929051N01441525EA0000002077
B1207334929057N01441466EA0000002093
B1207384929062N01441399EA0000002104
B1207434929069N01441338EA0000002117
B1207484929072N01441272EA0000002126
B1207534929076N01441208EA0000002130
B1207584929079N01441149EA0000002146
B1208034929084N01441084EA0000002157
B1208084929090N01441021EA0000002174
B1208134929093N01440956EA0000002189
B1208184929093N01440886EA0000002211
B1208234929097N01440824EA0000002218
B1208284929102N01440761EA0000002220
B1208334929109N01440703EA0000002221
B1208384929117N01440642EA0000002214
B1208434929121N01440583EA0000002211
B1208484929121N01440523EA0000002199
B1208534929123N01440459EA0000002181
B1208584929133N01440380EA0000002163
B1209034929138N01440314EA0000002159
B1209084929141N01440234EA0000002144
B1209134929144N01440156EA0000002133
B1209184929148N01440093EA0000002133
B1209234929153N01440037EA0000002132
B1209284929160N01439981EA0000002131
B1209334929167N01439931EA0000002140
B1209384929174N01439877EA0000002142
B1209434929184N01439827EA0000002146
B1209484929192N01439780EA0000002150
B1209534929198N01439723EA0000002150
B1209584929203N01439662EA0000002145
B1210034929206N01439603EA0000002148
B1210084929206N01439540EA0000002152
B1210134929204N01439472EA0000002153
B1210184929203N01439403EA0000002153
B1210234929200N01439326EA0000002149
B1210284929196N01439247EA0000002147
B1210334929198N01439179EA0000002140
B1210384929196N01439110EA0000002133
B1210434929194N01439040EA0000002122
B1210484929191N01438960EA0000002109
B1210534929191N01438885EA0000002100
B1210584929188N01438806EA0000002084
B1211034929184N01438725EA0000002071
B1211084929181N01438647EA0000002061
B1211134929180N01438571EA0000002047
B1211184929178N01438490EA0000002031
B1211234929177N01438413EA0000002024
B1211284929174N01438334EA0000002016
B1211334929173N01438257EA0000002010
B1211384929170N01438185EA0000002004
B1211434929168N01438125EA0000001995
B1211484929169N01438073EA0000001994
B1211534929170N01438007EA0000001983
B1211584929176N01437946EA0000001984
B1212034929180N01437880EA0000001987
B1212084929176N01437830EA0000001991
B1212134929175N01437778EA0000001994
B1212184929180N01437721EA0000001992
B1212234929187N01437662EA0000001999
B1212284929190N01437601EA0000002004
B1212334929193N01437540EA0000002006
B1212384929192N01437481EA0000002016
B1212434929192N01437420EA0000002013
B1212484929194N01437354EA0000002004
B1212534929196N01437287EA0000001996
B1212584929198N01437225EA0000001986
B1213034929195N01437165EA0000001972
B1213084929195N01437098EA0000001960
B1213134929195N01437029EA0000001945
B1213184929198N01436962EA0000001934
B1213234929200N01436891EA0000001922
B1213284929202N01436829EA0000001919
B1213334929200N01436764EA0000001909
B1213384929198N01436705EA0000001906
B1213434929193N01436644EA0000001895
B1213484929190N01436574EA0000001875
B1213534929190N01436506EA0000001867
B1213584929188N01436433EA0000001859
B1214034929189N01436360EA0000001848
B1214084929190N01436289EA0000001848
B1214134929187N01436222EA0000001846
B1214184929183N01436147EA0000001851
B1214234929185N01436093EA0000001865
B1214284929213N01436068EA0000001867
B1214334929220N01436077EA0000001873
B1214384929206N01436062EA0000001877
B1214434929200N01436007EA0000001882
B1214484929202N01435945EA0000001889
B1214534929204N01435881EA0000001889
B1214584929204N01435812EA0000001892
B1215034929203N01435737EA0000001888
B1215084929204N01435671EA0000001892
B1215134929206N01435599EA0000001896
B1215184929207N01435526EA0000001896
B1215234929208N01435455EA0000001895
B1215284929210N01435382EA0000001896
B1215334929210N01435309EA0000001896
B1215384929209N01435235EA0000001896
B1215434929209N01435163EA0000001894
B1215484929212N01435095EA0000001889
B1215534929213N01435025EA0000001881
B1215584929216N01434943EA0000001871
B1216034929219N01434868EA0000001864
B1216084929221N01434791EA0000001851
B1216134929220N01434714EA0000001838
B1216184929221N01434638EA0000001822
B1216234929226N01434560EA0000001805
B1216284929226N01434479EA0000001790
B1216334929226N01434404EA0000001773
B1216384929219N01434329EA0000001759
B1216434929214N01434253EA0000001741
B1216484929209N01434178EA0000001731
B1216534929204N01434105EA0000001720
B1216584929197N01434036EA0000001710
B1217034929186N01433962EA0000001706
B1217084929175N01433887EA0000001704
B1217134929160N01433817EA0000001704
B1217184929153N01433756EA0000001714
B1217234929143N01433690EA0000001713
B1217284929139N01433627EA0000001717
B1217334929136N01433570EA0000001718
B1217384929130N01433516EA0000001709
B1217434929125N01433467EA0000001707
B1217484929119N01433412EA0000001701
B1217534929114N01433358EA0000001695
B1217584929108N01433299EA0000001689
B1218034929104N01433238EA0000001682
B1218084929090N01433176EA0000001676
B1218134929078N01433121EA0000001684
B1218184929060N01433070EA0000001687
B1218234929046N01433022EA0000001696
B1218284929028N01432972EA0000001702
B1218334929009N01432924EA0000001703
B1218384928992N01432879EA0000001709
B1218434928976N01432832EA0000001714
B1218484928959N01432785EA0000001717
B1218534928942N01432733EA0000001719
B1218584928927N01432681EA0000001719
B1219034928911N01432627EA0000001723
B1219084928900N01432581EA0000001732
B1219134928891N01432530EA0000001741
B1219184928886N01432484EA0000001740
B1219234928874N01432431EA0000001742
B1219284928865N01432382EA0000001742
B1219334928851N01432330EA0000001743
B1219384928837N01432276EA0000001751
B1219434928824N01432220EA0000001765
B1219484928832N01432162EA0000001778
B1219534928848N01432166EA0000001789
B1219584928828N01432147EA0000001801
B1220034928822N01432090EA0000001815
B1220084928850N01432055EA0000001822
B1220134928868N01432065EA0000001833
B1220184928851N01432069EA0000001841
B1220234928829N01432040EA0000001852
B1220284928814N01431987EA0000001860
B1220334928809N01431935EA0000001869
B1220384928808N01431875EA0000001868
B1220434928808N01431812EA0000001872
B1220484928808N01431752EA0000001880
B1220534928812N01431690EA0000001893
B1220584928815N01431626EA0000001896
B1221034928820N01431564EA0000001903
B1221084928824N01431506EA0000001908
B1221134928828N01431443EA0000001903
B1221174928828N01431393EA0000001905
B1221234928827N01431313EA0000001903
B1221284928829N01431248EA0000001910
B1221334928828N01431178EA0000001920
B1221384928836N01431113EA0000001937
B1221434928860N01431088EA0000001959
B1221484928853N01431090EA0000001980
B1221534928837N01431040EA0000001998
B1221584928840N01430975EA0000002017
B1222034928865N01430938EA0000002043
B1222084928876N01430948EA0000002069
B1222134928859N01430924EA0000002092
B1222184928854N01430865EA0000002116
B1222234928855N01430796EA0000002139
B1222284928859N01430734EA0000002176
B1222334928857N01430676EA0000002198
B1222384928856N01430613EA0000002214
B1222434928852N01430547EA0000002231
B1222484928841N01430492EA0000002250
B1222534928827N01430444EA0000002271
B1222584928813N01430381EA0000002286
B1223034928805N01430317EA0000002296
B1223084928804N01430246EA0000002295
B1223134928802N01430175EA0000002300
B1223184928803N01430103EA0000002290
B1223234928810N01430026EA0000002277
B1223284928817N01429955EA0000002276
B1223334928824N01429877EA0000002274
B1223384928832N01429803EA0000002271
B1223434928837N01429723EA0000002267
B1223484928843N01429651EA0000002272
B1223534928849N01429582EA0000002272
B1223584928855N01429515EA0000002255
B1224034928861N01429448EA0000002253
B1224084928867N01429379EA0000002243
B1224134928877N01429298EA0000002233
B1224184928884N01429229EA0000002240
B1224234928894N01429155EA0000002235
B1224284928904N01429077EA0000002233
B1224334928913N01429014EA0000002238
B1224384928922N01428954EA0000002231
B1224434928929N01428892EA0000002228
B1224484928938N01428825EA0000002215
B1224534928945N01428747EA0000002201
B1224584928952N01428667EA0000002194
B1225034928961N01428581EA0000002180
B1225084928970N01428499EA0000002178
B1225134928976N01428419EA0000002166
B1225184928981N01428346EA0000002161
B1225234928988N01428278EA0000002159
B1225284928994N01428201EA0000002153
B1225334929005N01428130EA0000002151
B1225384929006N01428053EA0000002136
B1225434929010N01427982EA0000002133
B1225484929018N01427902EA0000002123
B1225534929028N01427827EA0000002113
B1225584929037N01427750EA0000002104
B1226034929044N01427676EA0000002092
B1226084929050N01427603EA0000002087
B1226134929058N01427528EA0000002079
B1226184929062N01427469EA0000002092
B1226234929069N01427406EA0000002102
B1226284929073N01427337EA0000002115
B1226334929079N01427275EA0000002116
B1226384929084N01427212EA0000002113
B1226434929090N01427139EA0000002102
B1226484929096N01427056EA0000002089
B1226534929102N01426975EA0000002081
B1226584929108N01426896EA0000002075
B1227034929115N01426820EA0000002067
B1227084929123N01426750EA0000002062
B1227134929128N01426674EA0000002050
B1227184929129N01426600EA0000002037
B1227234929129N01426528EA0000002020
B1227284929127N01426451EA0000002012
B1227334929123N01426378EA0000002005
B1227384929115N01426309EA0000001999
B1227434929112N01426236EA0000001984
B1227484929111N01426163EA0000001975
B1227534929110N01426088EA0000001961
B1227584929106N01426013EA0000001951
B1228034929102N01425935EA0000001936
B1228084929100N01425856EA0000001931
B1228134929102N01425774EA0000001925
B1228184929102N01425696EA0000001916
B1228234929102N01425614EA0000001905
B1228284929102N01425536EA0000001891
B1228334929104N01425455EA0000001876
B1228384929105N01425376EA0000001868
B1228434929107N01425298EA0000001863
B1228484929107N01425221EA0000001850
B1228534929108N01425138EA0000001844
B1228584929106N01425055EA0000001836
B1229034929101N01424976EA0000001825
B1229084929098N01424892EA0000001818
B1229134929100N01424825EA0000001830
B1229184929100N01424763EA0000001829
B1229234929102N01424703EA0000001828
B1229284929103N01424641EA0000001818
B1229334929104N01424577EA0000001808
B1229384929103N01424508EA0000001796
B1229434929103N01424433EA0000001788
B1229484929106N01424371EA0000001785
B1229534929107N01424296EA0000001769
B1229584929108N01424241EA0000001761
B1230034929108N01424173EA0000001756
B1230084929107N01424101EA0000001743
B1230134929107N01424031EA0000001734
B1230184929107N01423956EA0000001721
B1230234929107N01423887EA0000001722
B1230284929106N01423815EA0000001720
B1230334929107N01423747EA0000001720
B1230384929109N01423682EA0000001717
B1230434929105N01423619EA0000001709
B1230484929102N01423554EA0000001700
B1230534929096N01423485EA0000001693
B1230584929092N01423414EA0000001685
B1231034929090N01423346EA0000001680
B1231084929085N01423276EA0000001669
B1231134929075N01423212EA0000001665
B1231184929066N01423152EA0000001661
B1231234929061N01423094EA0000001658
B1231284929054N01423036EA0000001656
B1231334929049N01422977EA0000001655
B1231384929044N01422922EA0000001656
B1231434929039N01422863EA0000001657
B1231484929037N01422801EA0000001660
B1231534929038N01422743EA0000001668
B1231584929034N01422683EA0000001680
B1232034929036N01422627EA0000001695
B1232084929063N01422598EA0000001711
B1232134929069N01422613EA0000001725
B1232184929053N01422589EA0000001733
B1232234929044N01422549EA0000001761
B1232284929050N01422500EA0000001770
B1232334929074N01422472EA0000001786
B1232384929086N01422486EA0000001798
B1232434929074N01422461EA0000001820
B1232484929085N01422414EA0000001828
B1232534929107N01422405EA0000001840
B1232584929094N01422396EA0000001851
B1233034929079N01422370EA0000001866
B1233084929077N01422331EA0000001877
B1233134929096N01422286EA0000001887
B1233184929124N01422263EA0000001893
B1233234929154N01422252EA0000001905
B1233284929166N01422266EA0000001916
B1233334929149N01422242EA0000001933
B1233384929165N01422195EA0000001944
B1233434929186N01422198EA0000001953
B1233484929175N01422201EA0000001972
B1233534929168N01422156EA0000001990
B1233584929168N01422102EA0000001999
B1234034929171N01422048EA0000002005
B1234084929173N01421993EA0000002012
B1234134929172N01421936EA0000002019
B1234184929169N01421876EA0000002027
B1234234929164N01421820EA0000002046
B1234284929183N01421781EA0000002066
B1234334929198N01421786EA0000002079
B1234384929182N01421784EA0000002088
B1234434929166N01421745EA0000002107
B1234484929164N01421694EA0000002126
B1234534929170N01421636EA0000002140
B1234584929174N01421575EA0000002161
B1235034929173N01421517EA0000002177
B1235084929174N01421462EA0000002184
B1235134929177N01421406EA0000002195
B1235184929180N01421341EA0000002200
B1235234929185N01421285EA0000002215
B1235284929187N01421229EA0000002224
B1235334929194N01421172EA0000002237
B1235384929197N01421111EA0000002245
B1235434929201N01421052EA0000002253
B1235484929202N01420987EA0000002262
B1235534929202N01420918EA0000002281
B1235584929200N01420852EA0000002300
B1236034929194N01420787EA0000002314
B1236084929194N01420716EA0000002316
B1236134929195N01420649EA0000002333
B1236184929193N01420579EA0000002344
B1236234929192N01420506EA0000002345
B1236284929194N01420431EA0000002342
B1236334929194N01420360EA0000002333
B1236384929196N01420282EA0000002319
B1236434929200N01420192EA0000002298
B1236484929205N01420108EA0000002291
B1236534929209N01420023EA0000002278
B1236584929214N01419933EA0000002262
B1237034929216N01419850EA0000002256
B1237084929221N01419769EA0000002240
B1237134929227N01419691EA0000002231
B1237184929239N01419613EA0000002216
B1237234929244N01419533EA0000002202
B1237284929249N01419450EA0000002190
B1237334929252N01419369EA0000002180
B1237384929258N01419283EA0000002170
B1237434929269N01419205EA0000002166
B1237484929281N01419130EA0000002155
B1237534929292N01419055EA0000002143
B1237584929304N01418978EA0000002130
B1238034929316N01418899EA0000002117
B1238084929327N01418823EA0000002105
B1238134929340N01418747EA0000002090
B1238184929356N01418674EA0000002079
B1238234929372N01418599EA0000002069
B1238284929382N01418535EA0000002082
B1238334929390N01418476EA0000002093
B1238384929396N01418422EA0000002111
B1238434929403N01418372EA0000002131
B1238484929408N01418316EA0000002150
B1238534929416N01418264EA0000002167
B1238584929421N01418209EA0000002176
B1239034929425N01418153EA0000002191
B1239084929425N01418097EA0000002201
B1239134929428N01418038EA0000002206
B1239184929431N01417975EA0000002218
B1239234929432N01417919EA0000002240
B1239284929431N01417861EA0000002257
B1239334929429N01417809EA0000002273
B1239384929430N01417750EA0000002285
B1239434929429N01417694EA0000002299
B1239484929432N01417642EA0000002308
B1239534929433N01417581EA0000002316
B1239584929435N01417522EA0000002321
B1240034929438N01417458EA0000002327
B1240084929437N01417395EA0000002332
B1240134929438N01417327EA0000002335
B1240184929440N01417264EA0000002344
B1240234929442N01417203EA0000002350
B1240284929447N01417131EA0000002354
B1240334929451N01417061EA0000002362
B1240384929451N01416990EA0000002376
B1240434929454N01416922EA0000002385
B1240484929453N01416854EA0000002391
B1240534929456N01416781EA0000002399
B1240584929460N01416708EA0000002403
B1241034929462N01416637EA0000002396
B1241084929463N01416561EA0000002389
B1241134929463N01416489EA0000002384
B1241184929467N01416415EA0000002383
B1241234929472N01416337EA0000002380
B1241284929473N01416262EA0000002373
B1241334929473N01416187EA0000002366
B1241384929472N01416112EA0000002361
B1241434929468N01416036EA0000002349
B1241484929465N01415962EA0000002344
B1241534929462N01415893EA0000002333
B1241584929461N01415818EA0000002322
B1242034929464N01415743EA0000002309
B1242084929466N01415659EA0000002294
B1242134929467N01415581EA0000002285
B1242184929468N01415498EA0000002277
B1242234929468N01415416EA0000002264
B1242284929469N01415344EA0000002255
B1242334929466N01415272EA0000002241
B1242384929460N01415212EA0000002231
B1242434929452N01415144EA0000002221
B1242484929446N01415083EA0000002208
B1242534929440N01415023EA0000002199
B1242584929437N01414959EA0000002189
B1243034929437N01414895EA0000002178
B1243084929440N01414831EA0000002172
B1243134929440N01414768EA0000002163
B1243184929438N01414704EA0000002153
B1243234929437N01414640EA0000002146
B1243284929435N01414582EA0000002145
B1243334929431N01414526EA0000002137
B1243384929430N01414473EA0000002126
B1243434929400N01414377EA0000002120
B1243484929419N01414338EA0000002112
B1243534929438N01414300EA0000002104
B1243584929459N01414259EA0000002093
B1244034929436N01414176EA0000002087
B1244084929432N01414114EA0000002076
B1244134929422N01414057EA0000002066
B1244184929418N01414000EA0000002061
B1244234929417N01413940EA0000002055
B1244284929418N01413884EA0000002046
B1244334929415N01413824EA0000002038
B1244384929411N01413761EA0000002030
B1244434929403N01413699EA0000002019
B1244484929399N01413635EA0000002008
B1244534929398N01413568EA0000001998
B1244584929393N01413497EA0000001990
B1245034929388N01413426EA0000001982
B1245084929384N01413356EA0000001977
B1245134929379N01413290EA0000001969
B1245184929373N01413222EA0000001959
B1245234929364N01413152EA0000001953
B1245284929357N01413085EA0000001949
B1245334929348N01413020EA0000001940
B1245384929340N01412954EA0000001932
B1245434929329N01412887EA0000001925
B1245484929320N01412825EA0000001919
B1245534929308N01412753EA0000001907
B1245584929300N01412681EA0000001899
B1246034929290N01412605EA0000001891
B1246084929284N01412535EA0000001892
B1246134929280N01412476EA0000001896
B1246184929276N01412413EA0000001894
B1246234929270N01412350EA0000001894
B1246284929261N01412288EA0000001891
B1246334929252N01412227EA0000001887
B1246384929245N01412163EA0000001884
B1246434929238N01412100EA0000001880
B1246484929231N01412038EA0000001880
B1246534929224N01411981EA0000001880
B1246584929215N01411927EA0000001884
B1247034929209N01411876EA0000001882
B1247084929204N01411821EA0000001880
B1247134929197N01411767EA0000001876
B1247184929190N01411712EA0000001866
B1247234929183N01411645EA0000001856
B1247284929178N01411578EA0000001852
B1247334929172N01411513EA0000001852
B1247384929167N01411447EA0000001844
B1247434929160N01411378EA0000001839
B1247484929149N01411310EA0000001836
B1247534929140N01411259EA0000001837
B1247584929129N01411196EA0000001838
B1248034929118N01411131EA0000001841
B1248084929107N01411067EA0000001848
B1248134929104N01411001EA0000001847
B1248184929100N01410933EA0000001848
B1248234929095N01410862EA0000001845
B1248284929086N01410794EA0000001844
B1248334929075N01410725EA0000001839
B1248384929064N01410659EA0000001835
B1248444929051N01410579EA0000001829
B1248494929041N01410509EA0000001824
B1248544929026N01410441EA0000001819
B1248594929013N01410379EA0000001821
B1249044929002N01410319EA0000001827
B1249094928990N01410261EA0000001830
B1249144928978N01410203EA0000001828
B1249194928966N01410143EA0000001826
B1249244928953N01410086EA0000001822
B1249294928942N01410026EA0000001817
B1249344928932N01409965EA0000001806
B1249394928921N01409896EA0000001799
B1249444928914N01409822EA0000001792
B1249494928910N01409747EA0000001783
B1249544928906N01409673EA0000001782
B1249594928901N01409607EA0000001781
B1250044928896N01409541EA0000001780
B1250094928889N01409476EA0000001781
B1250144928883N01409406EA0000001774
B1250194928879N01409334EA0000001766
B1250244928876N01409265EA0000001762
B1250294928868N01409197EA0000001758
B1250344928860N01409130EA0000001754
B1250394928853N01409063EA0000001753
B1250444928844N01408995EA0000001747
B1250494928837N01408926EA0000001745
B1250544928829N01408857EA0000001746
B1250594928821N01408789EA0000001747
B1251044928809N01408723EA0000001748
B1251094928796N01408660EA0000001754
B1251144928782N01408596EA0000001757
B1251194928768N01408538EA0000001761
B1251244928755N01408475EA0000001764
B1251294928743N01408408EA0000001745
B1251344928732N01408335EA0000001730
B1251394928723N01408254EA0000001716
B1251444928718N01408169EA0000001700
B1251494928712N01408089EA0000001686
B1251544928704N01408012EA0000001680
B1251594928699N01407945EA0000001671
B1252044928694N01407872EA0000001661
B1252094928690N01407798EA0000001654
B1252144928683N01407726EA0000001652
B1252194928673N01407653EA0000001649
B1252244928662N01407585EA0000001648
B1252294928651N01407519EA0000001650
B1252344928641N01407451EA0000001649
B1252394928631N01407386EA0000001645
B1252444928620N01407314EA0000001641
B1252494928613N01407253EA0000001638
B1252544928615N01407191EA0000001633
B1252594928626N01407127EA0000001626
B1253044928635N01407063EA0000001621
B1253094928651N01406996EA0000001614
B1253144928664N01406929EA0000001613
B1253194928679N01406859EA0000001609
B1253244928690N01406792EA0000001604
B1253294928703N01406722EA0000001598
B1253344928715N01406651EA0000001591
B1253394928728N01406578EA0000001582
B1253444928743N01406505EA0000001573
B1253494928753N01406429EA0000001562
B1253544928760N01406368EA0000001564
B1253594928774N01406301EA0000001557
B1254044928789N01406224EA0000001553
B1254094928795N01406156EA0000001554
B1254144928798N01406087EA0000001546
B1254194928799N01406018EA0000001545
B1254244928807N01405950EA0000001541
B1254294928816N01405891EA0000001538
B1254344928823N01405831EA0000001531
B1254394928830N01405769EA0000001526
B1254444928838N01405702EA0000001522
B1254494928846N01405639EA0000001522
B1254544928853N01405572EA0000001517
B1254594928861N01405505EA0000001512
B1255044928865N01405442EA0000001506
B1255094928867N01405378EA0000001499
B1255144928864N01405310EA0000001491
B1255194928861N01405243EA0000001486
B1255244928854N01405176EA0000001479
B1255294928851N01405112EA0000001473
B1255344928849N01405049EA0000001467
B1255394928849N01404983EA0000001461
B1255444928847N01404914EA0000001457
B1255494928847N01404855EA0000001460
B1255544928847N01404797EA0000001464
B1255594928850N01404742EA0000001466
B1256044928853N01404684EA0000001463
B1256094928849N01404632EA0000001462
B1256144928846N01404573EA0000001456
B1256194928843N01404516EA0000001458
B1256244928842N01404457EA0000001455
B1256294928844N01404391EA0000001450
B1256344928845N01404323EA0000001439
B1256394928845N01404255EA0000001424
B1256444928845N01404180EA0000001406
B1256494928843N01404108EA0000001395
B1256544928840N01404038EA0000001385
B1256594928841N01403970EA0000001378
B1257044928838N01403902EA0000001363
B1257094928827N01403834EA0000001346
B1257144928819N01403760EA0000001335
B1257194928811N01403689EA0000001334
B1257244928809N01403627EA0000001339
B1257294928816N01403565EA0000001337
B1257344928837N01403503EA0000001343
B1257394928872N01403478EA0000001353
B1257444928875N01403490EA0000001359
B1257494928856N01403453EA0000001372
B1257544928860N01403394EA0000001377
B1257594928878N01403335EA0000001383
B1258044928907N01403289EA0000001388
B1258094928932N01403250EA0000001395
B1258144928929N01403207EA0000001397
B1258194928909N01403187EA0000001395
B1258244928888N01403169EA0000001402
B1258294928870N01403142EA0000001406
B1258344928848N01403117EA0000001420
B1258394928849N01403061EA0000001441
B1258444928868N01403060EA0000001461
B1258494928849N01403048EA0000001481
B1258544928853N01402993EA0000001500
B1258594928875N01402983EA0000001518
B1259044928859N01402980EA0000001534
B1259094928848N01402937EA0000001554
B1259144928871N01402895EA0000001571
B1259194928880N01402905EA0000001588
B1259244928864N01402890EA0000001606
B1259294928856N01402835EA0000001629
B1259344928877N01402794EA0000001644
B1259394928887N01402806EA0000001662
B1259444928868N01402777EA0000001678
B1259494928876N01402722EA0000001695
B1259544928901N01402708EA0000001710
B1259594928896N01402717EA0000001731
B1300044928881N01402672EA0000001745
B1300094928897N01402623EA0000001762
B1300144928919N01402633EA0000001780
B1300194928906N01402625EA0000001798
B1300244928911N01402566EA0000001812
B1300294928939N01402554EA0000001830
B1300344928933N01402563EA0000001844
B1300394928923N01402509EA0000001858
B1300444928941N01402459EA0000001877
B1300494928970N01402459EA0000001895
B1300544928960N01402461EA0000001911
B1300594928951N01402409EA0000001927
B1301044928967N01402354EA0000001949
B1301094928993N01402357EA0000001972
B1301144928985N01402356EA0000001992
B1301194928992N01402301EA0000002012
B1301244929021N01402277EA0000002038
B1301294929027N01402296EA0000002059
B1301344929014N01402270EA0000002082
B1301394929033N01402223EA0000002101
B1301444929064N01402223EA0000002127
B1301494929059N01402238EA0000002149
B1301544929046N01402206EA0000002166
B1301594929050N01402158EA0000002191
B1302044929080N01402124EA0000002208
B1302094929092N01402142EA0000002232
B1302144929079N01402122EA0000002251
B1302194929077N01402074EA0000002272
B1302244929079N01402025EA0000002296
B1302294929076N01401970EA0000002315
B1302344929073N01401920EA0000002328
B1302394929070N01401867EA0000002336
B1302444929065N01401810EA0000002340
B1302494929060N01401753EA0000002349
B1302544929055N01401697EA0000002360
B1302594929048N01401636EA0000002364
B1303044929037N01401576EA0000002369
B1303094929027N01401514EA0000002379
B1303144929023N01401455EA0000002394
B1303194929020N01401399EA0000002399
B1303244929019N01401342EA0000002403
B1303294929021N01401280EA0000002403
B1303344929020N01401217EA0000002401
B1303394929020N01401152EA0000002399
B1303444929020N01401086EA0000002391
B1303494929020N01401019EA0000002382
B1303544929023N01400950EA0000002371
B1303594929028N01400879EA0000002360
B1304044929030N01400797EA0000002346
B1304094929030N01400722EA0000002335
B1304144929030N01400646EA0000002323
B1304194929031N01400568EA0000002302
B1304244929031N01400491EA0000002292
B1304294929031N01400413EA0000002280
B1304344929031N01400330EA0000002268
B1304394929029N01400251EA0000002262
B1304444929029N01400173EA0000002254
B1304494929026N01400099EA0000002247
B1304544929023N01400026EA0000002235
B1304594929027N01359954EA0000002227
B1305044929030N01359878EA0000002219
B1305094929030N01359808EA0000002213
B1305144929031N01359737EA0000002203
B1305194929029N01359666EA0000002189
B1305244929024N01359594EA0000002172
B1305294929016N01359521EA0000002150
B1305344929008N01359456EA0000002133
B1305394928995N01359383EA0000002114
B1305444928980N01359315EA0000002107
B1305494928967N01359246EA0000002096
B1305544928955N01359178EA0000002087
B1305594928940N01359111EA0000002077
B1306044928927N01359044EA0000002066
B1306094928918N01358983EA0000002065
B1306144928908N01358919EA0000002061
B1306194928897N01358859EA0000002062
B1306244928883N01358799EA0000002063
B1306294928869N01358741EA0000002065
B1306344928860N01358682EA0000002068
B1306394928852N01358625EA0000002079
B1306444928841N01358575EA0000002085
B1306494928831N01358519EA0000002094
B1306544928825N01358466EA0000002104
B1306594928817N01358412EA0000002116
B1307044928803N01358366EA0000002116
B1307094928796N01358309EA0000002127
B1307144928786N01358250EA0000002147
B1307194928782N01358202EA0000002178
B1307244928805N01358173EA0000002204
B1307294928811N01358190EA0000002230
B1307344928800N01358180EA0000002257
B1307394928784N01358135EA0000002279
B1307444928792N01358084EA0000002321
B1307494928817N01358071EA0000002349
B1307544928808N01358077EA0000002377
B1307594928799N01358036EA0000002409
B1308044928801N01357981EA0000002439
B1308094928798N01357929EA0000002467
B1308144928797N01357878EA0000002483
B1308194928802N01357829EA0000002495
B1308244928800N01357782EA0000002520
B1308294928801N01357735EA0000002537
B1308344928804N01357681EA0000002545
B1308394928811N01357626EA0000002554
B1308444928819N01357572EA0000002560
B1308494928823N01357524EA0000002551
B1308544928825N01357468EA0000002543
B1308594928827N01357408EA0000002535
B1309044928829N01357345EA0000002535
B1309094928833N01357286EA0000002537
B1309144928836N01357222EA0000002531
B1309194928841N01357157EA0000002530
B1309244928844N01357092EA0000002528
B1309294928852N01357026EA0000002532
B1309344928859N01356972EA0000002554
B1309394928863N01356906EA0000002559
B1309444928862N01356842EA0000002578
B1309494928858N01356774EA0000002585
B1309544928857N01356705EA0000002600
B1309594928849N01356634EA0000002609
B1310044928842N01356568EA0000002611
B1310094928833N01356502EA0000002610
B1310144928826N01356433EA0000002596
B1310194928822N01356362EA0000002588
B1310244928824N01356285EA0000002574
B1310294928831N01356205EA0000002563
B1310344928839N01356129EA0000002550
B1310394928850N01356054EA0000002534
B1310444928858N01355986EA0000002528
B1310494928868N01355914EA0000002510
B1310544928879N01355842EA0000002501
B1310594928891N01355768EA0000002489
B1311044928905N01355694EA0000002481
B1311094928922N01355622EA0000002471
B1311144928939N01355553EA0000002462
B1311194928954N01355476EA0000002454
B1311244928971N01355406EA0000002447
B1311294928988N01355339EA0000002436
B1311344928999N01355263EA0000002428
B1311394929006N01355184EA0000002419
B1311444929007N01355107EA0000002416
B1311514929006N01354994EA0000002405
B1311564929002N01354913EA0000002397
B1312014928998N01354827EA0000002389
B1312054928994N01354763EA0000002387
B1312104928990N01354684EA0000002378
B1312174928981N01354580EA0000002367
B1312224928974N01354503EA0000002355
B1312274928968N01354427EA0000002344
B1312324928962N01354354EA0000002337
B1312374928962N01354282EA0000002329
B1312424928955N01354197EA0000002317
B1312474928950N01354112EA0000002308
B1312524928944N01354028EA0000002293
B1312574928937N01353943EA0000002285
B1313024928932N01353863EA0000002278
B1313074928927N01353784EA0000002268
B1313124928922N01353702EA0000002257
B1313174928918N01353619EA0000002250
B1313224928914N01353545EA0000002242
B1313274928906N01353471EA0000002230
B1313324928902N01353399EA0000002224
B1313374928894N01353325EA0000002213
B1313424928886N01353253EA0000002203
B1313474928879N01353181EA0000002193
B1313524928874N01353104EA0000002185
B1313574928868N01353032EA0000002176
B1314024928858N01352955EA0000002162
B1314074928847N01352881EA0000002154
B1314124928831N01352813EA0000002143
B1314174928813N01352742EA0000002128
B1314224928796N01352671EA0000002116
B1314274928778N01352600EA0000002106
B1314324928760N01352527EA0000002091
B1314374928741N01352456EA0000002085
B1314424928724N01352385EA0000002073
B1314474928707N01352311EA0000002062
B1314524928688N01352241EA0000002054
B1314574928668N01352169EA0000002040
B1315024928651N01352095EA0000002025
B1315074928635N01352021EA0000002011
B1315124928618N01351945EA0000002001
B1315174928603N01351874EA0000001991
B1315224928587N01351802EA0000001984
B1315274928571N01351728EA0000001973
B1315324928556N01351660EA0000001967
B1315374928541N01351594EA0000001962
B1315424928527N01351533EA0000001958
B1315474928515N01351476EA0000001956
B1315524928500N01351419EA0000001949
B1315574928486N01351357EA0000001937
B1316024928469N01351282EA0000001914
B1316074928456N01351207EA0000001895
B1316124928439N01351131EA0000001877
B1316174928421N01351054EA0000001863
B1316224928405N01350980EA0000001856
B1316274928394N01350904EA0000001850
B1316324928387N01350847EA0000001854
B1316374928376N01350790EA0000001854
B1316424928366N01350731EA0000001855
B1316474928353N01350674EA0000001855
B1316524928339N01350616EA0000001855
B1316574928328N01350557EA0000001858
B1317024928317N01350498EA0000001860
B1317074928308N01350444EA0000001867
B1317124928300N01350380EA0000001875
B1317174928316N01350327EA0000001885
B1317224928333N01350328EA0000001881
B1317274928319N01350330EA0000001891
B1317324928300N01350303EA0000001901
B1317374928293N01350250EA0000001913
B1317424928318N01350212EA0000001919
B1317474928322N01350217EA0000001929
B1317524928301N01350198EA0000001938
B1317574928287N01350153EA0000001951
B1318024928307N01350102EA0000001958
B1318074928315N01350111EA0000001968
B1318124928297N01350098EA0000001982
B1318174928281N01350048EA0000001992
B1318224928293N01349992EA0000002000
B1318274928313N01349982EA0000002009
B1318324928297N01349975EA0000002016
B1318374928282N01349924EA0000002024
B1318424928290N01349865EA0000002030
B1318474928314N01349852EA0000002036
B1318524928299N01349849EA0000002042
B1318574928276N01349802EA0000002048
B1319024928271N01349746EA0000002059
B1319074928290N01349692EA0000002063
B1319124928310N01349657EA0000002071
B1319174928312N01349664EA0000002072
B1319224928288N01349646EA0000002078
B1319274928276N01349585EA0000002082
B1319324928280N01349517EA0000002086
B1319374928292N01349465EA0000002098
B1319424928315N01349458EA0000002102
B1319474928324N01349461EA0000002104
B1319524928305N01349456EA0000002112
B1319574928286N01349406EA0000002113
B1320024928274N01349349EA0000002120
B1320074928262N01349288EA0000002127
B1320124928270N01349227EA0000002127
B1320174928295N01349178EA0000002126
B1320224928317N01349132EA0000002124
B1320274928335N01349075EA0000002118
B1320324928339N01349004EA0000002111
B1320374928340N01348931EA0000002106
B1320424928340N01348863EA0000002104
B1320474928345N01348796EA0000002098
B1320524928350N01348730EA0000002091
B1320574928355N01348658EA0000002080
B1321024928354N01348589EA0000002081
B1321074928357N01348515EA0000002079
B1321124928360N01348445EA0000002078
B1321174928366N01348379EA0000002083
B1321224928373N01348307EA0000002084
B1321244928375N01348278EA0000002084
B1321324928385N01348161EA0000002079
B1321374928389N01348091EA0000002079
B1321424928393N01348022EA0000002076
B1321474928393N01347948EA0000002074
B1321524928392N01347873EA0000002074
B1321574928391N01347803EA0000002074
B1322024928394N01347732EA0000002073
B1322074928397N01347658EA0000002067
B1322124928398N01347588EA0000002060
B1322174928397N01347518EA0000002055
B1322224928395N01347447EA0000002048
B1322274928392N01347377EA0000002044
B1322324928387N01347307EA0000002038
B1322374928385N01347238EA0000002032
B1322424928381N01347168EA0000002022
B1322474928378N01347095EA0000002012
B1322524928373N01347015EA0000001999
B1322574928371N01346939EA0000001992
B1323024928370N01346864EA0000001988
B1323074928365N01346793EA0000001980
B1323124928359N01346723EA0000001973
B1323174928352N01346654EA0000001962
B1323224928346N01346587EA0000001946
B1323274928342N01346512EA0000001924
B1323324928335N01346432EA0000001905
B1323374928329N01346354EA0000001891
B1323424928326N01346273EA0000001876
B1323474928320N01346200EA0000001860
B1323524928307N01346140EA0000001855
B1323574928289N01346069EA0000001841
B1324024928269N01345994EA0000001829
B1324074928253N01345916EA0000001815
B1324124928239N01345848EA0000001805
B1324174928223N01345783EA0000001800
B1324224928205N01345724EA0000001799
B1324274928186N01345664EA0000001796
B1324324928166N01345607EA0000001794
B1324374928147N01345551EA0000001794
B1324424928126N01345497EA0000001793
B1324474928107N01345439EA0000001790
B1324524928085N01345386EA0000001787
B1324574928062N01345336EA0000001785
B1325024928039N01345285EA0000001785
B1325074928016N01345232EA0000001782
B1325124927990N01345178EA0000001784
B1325174927965N01345133EA0000001790
B1325224927956N01345071EA0000001792
B1325274927974N01345024EA0000001794
B1325324927985N01345028EA0000001800
B1325374927967N01345030EA0000001805
B1325424927942N01345015EA0000001807
B1325474927917N01344973EA0000001815
B1325524927917N01344914EA0000001820
B1325574927939N01344896EA0000001823
B1326024927928N01344901EA0000001829
B1326074927911N01344876EA0000001833
B1326124927906N01344816EA0000001823
B1326174927922N01344756EA0000001812
B1326224927934N01344693EA0000001808
B1326274927910N01344642EA0000001808
B1326324927883N01344610EA0000001814
B1326374927874N01344556EA0000001819
B1326424927889N01344546EA0000001823
B1326474927871N01344558EA0000001830
B1326524927846N01344541EA0000001838
B1326574927834N01344477EA0000001838
B1327024927833N01344417EA0000001844
B1327074927810N01344386EA0000001844
B1327124927809N01344393EA0000001844
B1327174927831N01344360EA0000001843
B1327224927843N01344296EA0000001845
B1327274927856N01344245EA0000001853
B1327324927873N01344243EA0000001854
B1327374927851N01344231EA0000001859
B1327424927792N01344172EA0000001862
B1327474927792N01344114EA0000001864
B1327524927857N01344063EA0000001867
B1327574927874N01344001EA0000001871
B1328024927892N01343970EA0000001884
B1328074927885N01343969EA0000001890
B1328124927864N01343915EA0000001899
B1328174927860N01343852EA0000001901
B1328224927879N01343794EA0000001901
B1328274927893N01343738EA0000001898
B1328324927905N01343674EA0000001895
B1328374927917N01343609EA0000001883
B1328424927931N01343539EA0000001875
B1328474927946N01343459EA0000001866
B1328524927959N01343380EA0000001855
B1328574927978N01343303EA0000001847
B1329024927998N01343235EA0000001830
B1329074928018N01343162EA0000001814
B1329124928040N01343080EA0000001799
B1329174928064N01343006EA0000001801
B1329224928085N01342933EA0000001807
B1329274928105N01342863EA0000001812
B1329324928129N01342802EA0000001816
B1329374928152N01342746EA0000001817
B1329424928176N01342685EA0000001816
B1329474928200N01342625EA0000001814
B1329524928224N01342561EA0000001810
B1329574928247N01342502EA0000001797
B1330024928268N01342441EA0000001793
B1330074928289N01342373EA0000001786
B1330124928308N01342304EA0000001778
B1330174928330N01342224EA0000001760
B1330224928350N01342151EA0000001752
B1330274928375N01342086EA0000001744
B1330324928394N01342015EA0000001736
B1330374928413N01341952EA0000001730
B1330424928430N01341893EA0000001724
B1330474928448N01341833EA0000001718
B1330524928467N01341771EA0000001704
B1330574928491N01341702EA0000001686
B1331024928520N01341639EA0000001668
B1331074928550N01341579EA0000001647
B1331124928577N01341526EA0000001633
B1331174928607N01341467EA0000001616
B1331224928632N01341405EA0000001609
B1331274928658N01341354EA0000001597
B1331324928685N01341299EA0000001594
B1331374928714N01341243EA0000001587
B1331424928742N01341191EA0000001576
B1331474928771N01341134EA0000001568
B1331524928799N01341073EA0000001563
B1331574928823N01341013EA0000001569
B1332024928853N01340960EA0000001569
B1332074928885N01340922EA0000001572
B1332124928916N01340903EA0000001579
B1332174928944N01340895EA0000001590
B1332224928950N01340899EA0000001601
B1332274928941N01340851EA0000001607
B1332324928952N01340788EA0000001617
B1332374928980N01340757EA0000001632
B1332424928979N01340757EA0000001643
B1332474928973N01340703EA0000001659
B1332524929003N01340665EA0000001672
B1332574929011N01340672EA0000001685
B1333024928994N01340646EA0000001695
B1333074928992N01340588EA0000001706
B1333124929018N01340533EA0000001715
B1333174929050N01340514EA0000001730
B1333224929051N01340530EA0000001735
B1333274929040N01340503EA0000001750
B1333324929062N01340456EA0000001760
B1333374929080N01340468EA0000001773
B1333424929064N01340449EA0000001785
B1333474929077N01340400EA0000001799
B1333524929111N01340394EA0000001809
B1333574929121N01340410EA0000001822
B1334024929105N01340382EA0000001830
B1334074929117N01340326EA0000001843
B1334124929146N01340316EA0000001850
B1334174929144N01340329EA0000001864
B1334224929133N01340288EA0000001876
B1334274929158N01340258EA0000001886
B1334324929162N01340272EA0000001903
B1334374929153N01340231EA0000001921
B1334424929178N01340203EA0000001933
B1334474929189N01340209EA0000001955
B1334524929174N01340173EA0000001971
B1334574929194N01340133EA0000001983
B1335024929223N01340128EA0000002002
B1335074929216N01340121EA0000002017
B1335124929215N01340065EA0000002038
B1335174929245N01340041EA0000002057
B1335224929243N01340044EA0000002072
B1335274929236N01339993EA0000002091
B1335324929258N01339947EA0000002115
B1335374929285N01339953EA0000002132
B1335424929280N01339952EA0000002146
B1335474929281N01339890EA0000002163
B1335524929310N01339857EA0000002181
B1335574929333N01339869EA0000002195
B1336024929324N01339858EA0000002202
B1336074929330N01339797EA0000002215
B1336124929361N01339768EA0000002229
B1336174929388N01339778EA0000002240
B1336224929384N01339781EA0000002246
B1336274929381N01339734EA0000002255
B1336324929406N01339682EA0000002262
B1336374929438N01339675EA0000002266
B1336424929453N01339694EA0000002271
B1336474929443N01339689EA0000002269
B1336524929438N01339637EA0000002274
B1336574929447N01339571EA0000002279
B1337024929463N01339505EA0000002295
B1337074929496N01339486EA0000002303
B1337124929498N01339491EA0000002310
B1337174929482N01339449EA0000002314
B1337224929480N01339385EA0000002327
B1337274929495N01339314EA0000002342
B1337324929524N01339294EA0000002356
B1337374929522N01339295EA0000002370
B1337424929513N01339246EA0000002382
B1337474929514N01339176EA0000002391
B1337524929523N01339115EA0000002396
B1337574929536N01339047EA0000002384
B1338024929546N01338982EA0000002375
B1338074929555N01338912EA0000002367
B1338124929566N01338838EA0000002363
B1338174929578N01338766EA0000002355
B1338224929591N01338684EA0000002345
B1338274929607N01338604EA0000002336
B1338324929624N01338527EA0000002333
B1338374929641N01338447EA0000002326
B1338424929659N01338366EA0000002315
B1338474929678N01338291EA0000002308
B1338524929696N01338215EA0000002295
B1338574929712N01338143EA0000002282
B1339024929729N01338078EA0000002278
B1339074929743N01338014EA0000002268
B1339124929758N01337948EA0000002257
B1339174929772N01337884EA0000002246
B1339224929786N01337820EA0000002237
B1339294929804N01337728EA0000002218
B1339344929813N01337658EA0000002205
B1339394929824N01337587EA0000002198
B1339444929833N01337514EA0000002184
B1339494929842N01337438EA0000002174
B1339554929851N01337349EA0000002158
B1340004929860N01337272EA0000002142
B1340054929874N01337192EA0000002128
B1340114929890N01337097EA0000002118
B1340164929906N01337022EA0000002119
B1340214929919N01336952EA0000002116
B1340264929928N01336884EA0000002118
B1340314929938N01336811EA0000002120
B1340364929948N01336736EA0000002124
B1340414929952N01336665EA0000002131
B1340464929952N01336603EA0000002137
B1340514929953N01336534EA0000002140
B1340564929961N01336467EA0000002146
B1341014929966N01336405EA0000002151
B1341064929974N01336340EA0000002154
B1341114929981N01336270EA0000002164
B1341164929999N01336207EA0000002169
B1341214930027N01336173EA0000002175
B1341264930035N01336178EA0000002178
B1341314930018N01336171EA0000002186
B1341364930000N01336158EA0000002196
B1341414929984N01336129EA0000002200
B1341464929984N01336068EA0000002202
B1341514930011N01336031EA0000002209
B1341564930025N01336037EA0000002212
B1342014930015N01336044EA0000002215
B1342064929999N01336028EA0000002215
B1342114929990N01335969EA0000002213
B1342164929996N01335902EA0000002218
B1342214929997N01335840EA0000002225
B1342264929981N01335787EA0000002222
B1342314929979N01335716EA0000002223
B1342364929983N01335648EA0000002222
B1342414929994N01335576EA0000002216
B1342464930004N01335508EA0000002208
B1342514930014N01335446EA0000002201
B1342564930025N01335382EA0000002190
B1343014930036N01335319EA0000002179
B1343064930049N01335251EA0000002160
B1343114930067N01335170EA0000002146
B1343164930084N01335099EA0000002145
B1343214930099N01335024EA0000002144
B1343264930112N01334955EA0000002141
B1343314930124N01334879EA0000002135
B1343364930139N01334807EA0000002137
B1343414930150N01334737EA0000002142
B1343464930151N01334673EA0000002153
B1343514930129N01334646EA0000002160
B1343564930134N01334650EA0000002166
B1344014930160N01334623EA0000002172
B1344064930174N01334565EA0000002180
B1344114930163N01334509EA0000002191
B1344164930143N01334498EA0000002198
B1344214930147N01334498EA0000002205
B1344264930172N01334472EA0000002206
B1344314930184N01334413EA0000002217
B1344364930167N01334372EA0000002222
B1344414930161N01334381EA0000002224
B1344464930182N01334368EA0000002228
B1344514930197N01334308EA0000002234
B1344564930202N01334247EA0000002242
B1345014930201N01334179EA0000002245
B1345064930204N01334112EA0000002253
B1345114930225N01334076EA0000002263
B1345164930226N01334090EA0000002269
B1345214930205N01334074EA0000002278
B1345264930194N01334008EA0000002283
B1345314930206N01333955EA0000002292
B1345364930228N01333947EA0000002296
B1345414930216N01333953EA0000002301
B1345464930197N01333902EA0000002303
B1345514930200N01333832EA0000002312
B1345564930212N01333774EA0000002317
B1346014930233N01333762EA0000002319
B1346064930241N01333771EA0000002327
B1346114930224N01333761EA0000002327
B1346164930216N01333696EA0000002329
B1346214930223N01333627EA0000002333
B1346264930234N01333561EA0000002334
B1346314930246N01333494EA0000002334
B1346364930256N01333427EA0000002333
B1346414930269N01333353EA0000002326
B1346464930257N01333220EA0000002310
B1346514930297N01333174EA0000002301
B1346564930326N01333141EA0000002305
B1347014930314N01333046EA0000002304
B1347064930309N01332977EA0000002304
B1347114930305N01332910EA0000002302
B1347164930300N01332840EA0000002296
B1347214930295N01332768EA0000002284
B1347264930290N01332685EA0000002266
B1347314930292N01332598EA0000002255
B1347364930294N01332510EA0000002244
B1347414930299N01332429EA0000002230
B1347464930300N01332339EA0000002218
B1347514930299N01332254EA0000002209
B1347564930297N01332168EA0000002195
B1348014930290N01332080EA0000002186
B1348064930284N01332004EA0000002187
B1348114930277N01331927EA0000002183
B1348164930268N01331849EA0000002176
B1348214930262N01331770EA0000002169
B1348264930257N01331692EA0000002163
B1348314930251N01331618EA0000002152
B1348364930244N01331534EA0000002131
B1348414930235N01331456EA0000002117
B1348464930225N01331377EA0000002095
B1348514930213N01331301EA0000002075
B1348564930201N01331222EA0000002054
B1349014930186N01331146EA0000002037
B1349064930168N01331070EA0000002027
B1349114930149N01330996EA0000002015
B1349164930131N01330924EA0000002010
B1349214930115N01330850EA0000001999
B1349264930098N01330776EA0000001994
B1349314930080N01330700EA0000001984
B1349364930062N01330627EA0000001976
B1349414930046N01330555EA0000001967
B1349464930028N01330501EA0000001975
B1349514930010N01330441EA0000001975
B1349564930007N01330382EA0000001980
B1350014930017N01330336EA0000001980
B1350064930035N01330310EA0000001979
B1350114930042N01330310EA0000001979
B1350164930015N01330307EA0000001977
B1350214929987N01330281EA0000001976
B1350264929965N01330226EA0000001972
B1350314929973N01330168EA0000001972
B1350364929991N01330119EA0000001968
B1350414930010N01330069EA0000001961
B1350464930032N01330017EA0000001957
B1350524930062N01329962EA0000001965
B1350574930086N01329911EA0000001970
B1351024930115N01329868EA0000001976
B1351074930146N01329829EA0000001982
B1351124930179N01329801EA0000001984
B1351174930209N01329772EA0000001993
B1351224930228N01329764EA0000002000
B1351274930220N01329775EA0000002003
B1351324930200N01329746EA0000001999
B1351374930199N01329688EA0000002003
B1351424930214N01329634EA0000002006
B1351474930236N01329597EA0000002006
B1351524930254N01329568EA0000002015
B1351574930275N01329540EA0000002016
B1352024930295N01329512EA0000002025
B1352074930291N01329520EA0000002031
B1352124930267N01329475EA0000002044
B1352174930273N01329423EA0000002050
B1352224930292N01329399EA0000002054
B1352274930301N01329397EA0000002060
B1352324930275N01329384EA0000002067
B1352374930259N01329323EA0000002077
B1352424930273N01329277EA0000002078
B1352474930295N01329255EA0000002079
B1352524930315N01329228EA0000002079
B1352574930326N01329174EA0000002082
B1353024930332N01329114EA0000002080
B1353074930336N01329046EA0000002072
B1353124930341N01328976EA0000002066
B1353174930346N01328910EA0000002063
B1353224930351N01328838EA0000002050
B1353274930358N01328764EA0000002045
B1353324930368N01328699EA0000002053
B1353374930382N01328636EA0000002056
B1353424930395N01328570EA0000002062
B1353474930421N01328525EA0000002067
B1353524930436N01328536EA0000002066
B1353574930422N01328518EA0000002067
B1354024930414N01328458EA0000002070
B1354074930425N01328397EA0000002074
B1354124930440N01328334EA0000002074
B1354174930455N01328271EA0000002074
B1354224930463N01328203EA0000002070
B1354274930475N01328142EA0000002065
B1354324930490N01328076EA0000002060
B1354374930505N01328012EA0000002059
B1354424930520N01327944EA0000002060
B1354474930536N01327874EA0000002063
B1354524930555N01327807EA0000002064
B1354574930573N01327733EA0000002056
B1355024930588N01327664EA0000002061
B1355074930603N01327594EA0000002060
B1355124930618N01327522EA0000002064
B1355174930631N01327456EA0000002063
B1355224930644N01327387EA0000002060
B1355274930655N01327316EA0000002059
B1355324930666N01327249EA0000002058
B1355374930676N01327181EA0000002060
B1355424930690N01327115EA0000002061
B1355474930703N01327050EA0000002054
B1355524930718N01326985EA0000002047
B1355574930733N01326918EA0000002038
B1356024930742N01326855EA0000002031
B1356074930757N01326789EA0000002024
B1356124930774N01326721EA0000002017
B1356174930790N01326652EA0000002015
B1356224930806N01326578EA0000002005
B1356274930822N01326505EA0000001997
B1356324930837N01326429EA0000001992
B1356374930851N01326353EA0000001992
B1356424930867N01326283EA0000001996
B1356474930881N01326208EA0000001995
B1356524930893N01326134EA0000001979
B1356574930909N01326045EA0000001962
B1357024930921N01325974EA0000001963
B1357074930931N01325900EA0000001943
B1357124930944N01325821EA0000001926
B1357174930953N01325738EA0000001914
B1357224930962N01325651EA0000001902
B1357274930972N01325573EA0000001891
B1357324930981N01325486EA0000001875
B1357374930989N01325404EA0000001870
B1357424931001N01325319EA0000001866
B1357474931010N01325237EA0000001863
B1357524931021N01325156EA0000001858
B1357574931036N01325074EA0000001854
B1358024931048N01324994EA0000001851
B1358074931062N01324910EA0000001851
B1358124931072N01324836EA0000001864
B1358174931094N01324796EA0000001865
B1358224931112N01324799EA0000001868
B1358274931099N01324790EA0000001873
B1358324931092N01324731EA0000001877
B1358374931096N01324666EA0000001880
B1358424931101N01324601EA0000001882
B1358474931107N01324529EA0000001884
B1358524931111N01324457EA0000001887
B1358574931119N01324384EA0000001890
B1359024931127N01324318EA0000001897
B1359074931152N01324281EA0000001908
B1359124931157N01324288EA0000001915
B1359174931144N01324242EA0000001921
B1359224931150N01324185EA0000001935
B1359274931175N01324175EA0000001941
B1359324931177N01324184EA0000001950
B1359374931159N01324161EA0000001957
B1359424931146N01324111EA0000001964
B1359474931152N01324053EA0000001972
B1359524931180N01324028EA0000001982
B1359574931189N01324034EA0000001993
B1400024931174N01324015EA0000001998
B1400074931167N01323958EA0000002006
B1400124931183N01323904EA0000002015
B1400174931205N01323901EA0000002025
B1400224931195N01323899EA0000002032
B1400274931181N01323853EA0000002041
B1400324931181N01323788EA0000002049
B1400374931196N01323731EA0000002055
B1400424931218N01323720EA0000002057
B1400474931208N01323720EA0000002062
B1400524931193N01323673EA0000002071
B1400574931193N01323611EA0000002078
B1401024931195N01323543EA0000002072
B1401074931200N01323469EA0000002065
B1401124931205N01323391EA0000002055
B1401174931210N01323303EA0000002034
B1401224931217N01323218EA0000002019
B1401274931223N01323131EA0000002006
B1401324931231N01323041EA0000001992
B1401374931241N01322960EA0000001983
B1401424931251N01322876EA0000001972
B1401474931261N01322791EA0000001966
B1401524931268N01322707EA0000001955
B1401574931274N01322624EA0000001942
B1402024931279N01322544EA0000001931
B1402074931286N01322460EA0000001918
B1402124931292N01322375EA0000001906
B1402174931297N01322289EA0000001899
B1402224931306N01322209EA0000001890
B1402274931316N01322128EA0000001881
B1402324931326N01322050EA0000001869
B1402374931335N01321971EA0000001859
B1402424931344N01321891EA0000001848
B1402474931353N01321813EA0000001841
B1402524931361N01321734EA0000001831
B1402574931370N01321657EA0000001822
B1403024931374N01321587EA0000001820
B1403074931377N01321513EA0000001815
B1403124931379N01321441EA0000001809
B1403154931380N01321397EA0000001806
B1403234931381N01321281EA0000001798
B1403284931383N01321211EA0000001792
B1403334931386N01321136EA0000001788
B1403384931389N01321062EA0000001784
B1403434931391N01320988EA0000001777
B1403484931391N01320913EA0000001768
B1403534931391N01320839EA0000001760
B1403584931391N01320759EA0000001749
B1404034931389N01320676EA0000001735
B1404084931387N01320590EA0000001720
B1404134931383N01320506EA0000001706
B1404184931381N01320417EA0000001693
B1404234931382N01320336EA0000001692
B1404284931385N01320255EA0000001685
B1404334931385N01320175EA0000001679
B1404384931387N01320098EA0000001682
B1404434931391N01320030EA0000001691
B1404484931399N01319963EA0000001701
B1404534931431N01319930EA0000001704
B1404584931430N01319932EA0000001707
B1405034931412N01319909EA0000001714
B1405084931399N01319859EA0000001721
B1405134931408N01319789EA0000001721
B1405184931420N01319713EA0000001722
B1405234931430N01319636EA0000001717
B1405284931435N01319566EA0000001718
B1405334931438N01319492EA0000001712
B1405384931435N01319432EA0000001721
B1405434931440N01319376EA0000001724
B1405484931454N01319331EA0000001722
B1405534931472N01319310EA0000001719
B1405584931461N01319307EA0000001718
B1406034931435N01319263EA0000001718
B1406084931415N01319210EA0000001721
B1406134931399N01319158EA0000001734
B1406184931407N01319101EA0000001743
B1406234931414N01319093EA0000001746
B1406284931388N01319083EA0000001751
B1406334931363N01319043EA0000001767
B1406384931374N01318991EA0000001780
B1406434931370N01318992EA0000001795
B1406484931346N01318950EA0000001810
B1406534931348N01318887EA0000001827
B1406584931356N01318876EA0000001850
B1407034931331N01318856EA0000001868
B1407084931317N01318790EA0000001887
B1407134931329N01318745EA0000001908
B1407184931322N01318741EA0000001935
B1407234931297N01318684EA0000001959
B1407284931304N01318631EA0000001981
B1407334931313N01318621EA0000002001
B1407384931286N01318591EA0000002021
B1407434931279N01318526EA0000002043
B1407484931300N01318503EA0000002055
B1407534931296N01318505EA0000002074
B1407584931270N01318465EA0000002092
B1408034931282N01318416EA0000002106
B1408084931296N01318416EA0000002121
B1408134931272N01318399EA0000002141
B1408184931259N01318333EA0000002161
B1408234931274N01318292EA0000002171
B1408284931280N01318296EA0000002178
B1408334931258N01318277EA0000002196
B1408384931241N01318211EA0000002210
B1408434931250N01318166EA0000002219
B1408484931273N01318142EA0000002217
B1408534931289N01318137EA0000002223
B1408584931308N01318114EA0000002228
B1409034931334N01318047EA0000002228
B1409084931354N01318001EA0000002235
B1409134931373N01317939EA0000002244
B1409184931391N01317899EA0000002251
B1409234931406N01317834EA0000002249
B1409284931416N01317776EA0000002247
B1409334931426N01317704EA0000002230
B1409384931435N01317634EA0000002222
B1409434931446N01317560EA0000002216
B1409484931464N01317488EA0000002214
B1409534931482N01317433EA0000002216
B1409584931492N01317367EA0000002213
B1410034931496N01317297EA0000002215
B1410084931503N01317231EA0000002211
B1410134931506N01317166EA0000002206
B1410184931511N01317107EA0000002199
B1410234931522N01317049EA0000002193
B1410284931541N01316998EA0000002190
B1410334931563N01316953EA0000002185
B1410384931574N01316888EA0000002175
B1410434931587N01316822EA0000002165
B1410484931598N01316760EA0000002157
B1410534931610N01316696EA0000002154
B1410584931628N01316635EA0000002153
B1411034931641N01316564EA0000002145
B1411084931654N01316493EA0000002139
B1411134931666N01316422EA0000002133
B1411184931679N01316352EA0000002127
B1411234931693N01316283EA0000002117
B1411284931708N01316219EA0000002109
B1411334931725N01316152EA0000002099
B1411384931743N01316088EA0000002084
B1411434931756N01316031EA0000002070
B1411484931767N01315968EA0000002056
B1411534931784N01315902EA0000002045
B1412004931798N01315815EA0000002034
B1412054931803N01315755EA0000002034
B1412104931811N01315696EA0000002034
B1412154931811N01315635EA0000002033
B1412204931805N01315574EA0000002030
B1412254931797N01315513EA0000002029
B1412304931794N01315449EA0000002029
B1412354931784N01315383EA0000002023
B1412404931769N01315322EA0000002013
B1412454931757N01315257EA0000002004
B1412504931759N01315188EA0000002000
B1412554931764N01315119EA0000002000
B1413004931773N01315056EA0000002001
B1413054931788N01314996EA0000002002
B1413104931803N01314932EA0000002004
B1413154931818N01314866EA0000002002
B1413204931830N01314798EA0000002002
B1413254931844N01314736EA0000002004
B1413304931860N01314676EA0000002002
B1413354931872N01314611EA0000002003
B1413404931886N01314545EA0000002002
B1413454931904N01314485EA0000001995
B1413504931919N01314416EA0000001987
B1413554931931N01314343EA0000001984
B1414004931944N01314272EA0000001984
B1414054931953N01314197EA0000001981
B1414104931962N01314120EA0000001979
B1414154931969N01314044EA0000001981
B1414204931975N01313960EA0000001987
B1414254931986N01313886EA0000001995
B1414304932008N01313842EA0000002008
B1414354932012N01313844EA0000002015
B1414404931994N01313795EA0000002018
B1414454931987N01313734EA0000002029
B1414504932002N01313686EA0000002035
B1414554932026N01313646EA0000002032
B1415004932037N01313581EA0000002030
B1415054932046N01313511EA0000002025
B1415104932053N01313445EA0000002029
B1415154932060N01313379EA0000002020
B1415204932065N01313312EA0000002019
B1415254932069N01313243EA0000002016
B1415304932075N01313175EA0000002012
B1415354932078N01313109EA0000002001
B1415404932078N01313051EA0000002004
B1415454932082N01312995EA0000002001
B1415504932082N01312945EA0000002003
B1415554932077N01312889EA0000002004
B1416004932078N01312840EA0000002007
B1416054932077N01312792EA0000002009
B1416104932073N01312740EA0000002005
B1416154932069N01312687EA0000002005
B1416204932069N01312628EA0000002005
B1416254932066N01312573EA0000002006
B1416304932065N01312513EA0000002004
B1416354932065N01312453EA0000002000
B1416404932062N01312393EA0000001994
B1416454932061N01312335EA0000001991
B1416504932062N01312274EA0000001984
B1416554932063N01312214EA0000001977
B1417004932064N01312154EA0000001969
B1417054932067N01312092EA0000001962
B1417104932075N01312035EA0000001955
B1417154932084N01311968EA0000001946
B1417204932092N01311912EA0000001942
B1417254932097N01311850EA0000001931
B1417304932105N01311781EA0000001922
B1417354932116N01311711EA0000001909
B1417404932128N01311644EA0000001902
B1417454932144N01311571EA0000001894
B1417504932157N01311505EA0000001897
B1417554932168N01311446EA0000001902
B1418004932176N01311386EA0000001905
B1418054932182N01311325EA0000001905
B1418104932188N01311257EA0000001899
B1418154932196N01311190EA0000001904
B1418204932205N01311127EA0000001910
B1418254932223N01311075EA0000001920
B1418304932243N01311071EA0000001931
B1418354932231N01311065EA0000001944
B1418404932218N01311010EA0000001946
B1418454932214N01310952EA0000001956
B1418504932230N01310901EA0000001960
B1418554932253N01310854EA0000001963
B1419004932266N01310791EA0000001966
B1419054932266N01310735EA0000001973
B1419104932253N01310731EA0000001975
B1419154932272N01310740EA0000001977
B1419204932298N01310706EA0000001981
B1419254932311N01310648EA0000001991
B1419304932316N01310585EA0000001996
B1419354932319N01310521EA0000001995
B1419404932324N01310457EA0000001999
B1419454932327N01310392EA0000002001
B1419504932333N01310325EA0000002004
B1419554932337N01310262EA0000002011
B1420004932342N01310200EA0000002008
B1420054932345N01310128EA0000002004
B1420104932353N01310055EA0000001998
B1420154932360N01309978EA0000001995
B1420204932367N01309904EA0000001990
B1420254932377N01309829EA0000001984
B1420304932389N01309749EA0000001980
B1420354932396N01309678EA0000001975
B1420404932404N01309603EA0000001970
B1420454932411N01309531EA0000001963
B1420504932417N01309458EA0000001948
B1420554932428N01309380EA0000001927
B1421004932440N01309296EA0000001909
B1421054932448N01309209EA0000001890
B1421104932455N01309123EA0000001864
B1421154932462N01309038EA0000001843
B1421204932469N01308955EA0000001825
B1421254932478N01308869EA0000001809
B1421304932489N01308788EA0000001796
B1421354932500N01308706EA0000001779
B1421404932514N01308620EA0000001761
B1421454932525N01308542EA0000001754
B1421504932542N01308473EA0000001745
B1421554932556N01308405EA0000001730
B1422004932571N01308326EA0000001709
B1422054932581N01308245EA0000001696
B1422104932591N01308162EA0000001688
B1422154932596N01308079EA0000001677
B1422204932603N01308000EA0000001666
B1422254932605N01307929EA0000001664
B1422304932610N01307858EA0000001658
B1422354932613N01307795EA0000001657
B1422404932614N01307731EA0000001657
B1422454932618N01307665EA0000001661
B1422504932622N01307602EA0000001664
B1422554932628N01307535EA0000001665
B1423004932635N01307470EA0000001668
B1423054932636N01307405EA0000001670
B1423104932636N01307343EA0000001669
B1423154932643N01307277EA0000001669
B1423204932647N01307206EA0000001673
B1423254932659N01307149EA0000001688
B1423304932679N01307147EA0000001696
B1423354932660N01307120EA0000001700
B1423404932652N01307074EA0000001711
B1423454932654N01307011EA0000001713
B1423504932661N01306952EA0000001718
B1423554932679N01306889EA0000001720
B1424004932702N01306834EA0000001729
B1424054932726N01306831EA0000001734
B1424104932717N01306819EA0000001739
B1424154932708N01306760EA0000001743
B1424204932709N01306698EA0000001756
B1424254932735N01306652EA0000001762
B1424304932753N01306653EA0000001772
B1424354932739N01306627EA0000001779
B1424404932742N01306567EA0000001787
B1424454932763N01306508EA0000001800
B1424504932787N01306503EA0000001810
B1424554932774N01306484EA0000001820
B1425004932770N01306424EA0000001832
B1425054932791N01306382EA0000001841
B1425104932814N01306390EA0000001846
B1425154932811N01306387EA0000001859
B1425204932799N01306335EA0000001867
B1425254932811N01306286EA0000001873
B1425304932842N01306269EA0000001874
B1425354932858N01306284EA0000001885
B1425404932860N01306289EA0000001892
B1425454932843N01306256EA0000001894
B1425504932829N01306212EA0000001901
B1425554932813N01306166EA0000001903
B1426004932796N01306127EA0000001905
B1426054932783N01306084EA0000001905
B1426104932766N01306048EA0000001905
B1426154932749N01306014EA0000001910
B1426204932728N01305988EA0000001919
B1426254932716N01305950EA0000001924
B1426304932737N01305902EA0000001924
B1426354932764N01305904EA0000001924
B1426404932765N01305922EA0000001927
B1426454932752N01305930EA0000001936
B1426504932742N01305924EA0000001948
B1426554932731N01305878EA0000001952
B1427004932753N01305833EA0000001961
B1427054932775N01305839EA0000001967
B1427104932777N01305854EA0000001969
B1427154932763N01305850EA0000001973
B1427204932751N01305823EA0000001977
B1427254932725N01305784EA0000001980
B1427304932707N01305758EA0000001992
B1427354932728N01305752EA0000002000
B1427404932727N01305689EA0000002009
B1427454932710N01305680EA0000002018
B1427504932722N01305690EA0000002022
B1427554932749N01305658EA0000002035
B1428004932752N01305592EA0000002046
B1428054932738N01305584EA0000002049
B1428104932755N01305588EA0000002053
B1428154932777N01305575EA0000002066
B1428204932766N01305569EA0000002074
B1428254932760N01305506EA0000002088
B1428304932783N01305461EA0000002091
B1428354932806N01305459EA0000002096
B1428404932818N01305460EA0000002107
B1428454932806N01305453EA0000002110
B1428504932790N01305400EA0000002119
B1428554932798N01305340EA0000002127
B1429004932825N01305292EA0000002128
B1429054932855N01305268EA0000002138
B1429104932875N01305267EA0000002144
B1429154932867N01305266EA0000002148
B1429204932850N01305247EA0000002154
B1429254932831N01305214EA0000002161
B1429304932826N01305159EA0000002160
B1429354932818N01305103EA0000002154
B1429404932832N01305046EA0000002143
B1429454932852N01304991EA0000002133
B1429504932866N01304933EA0000002119
B1429554932876N01304868EA0000002109
B1430014932890N01304787EA0000002099
B1430064932904N01304718EA0000002094
B1430114932921N01304650EA0000002094
B1430164932936N01304585EA0000002092
B1430214932951N01304518EA0000002083
B1430264932962N01304455EA0000002076
B1430314932972N01304394EA0000002068
B1430364932979N01304330EA0000002062
B1430414932986N01304261EA0000002056
B1430464932995N01304194EA0000002054
B1430514933035N01304113EA0000002055
B1430564933022N01304053EA0000002049
B1431014933010N01303996EA0000002049
B1431064933000N01303947EA0000002051
B1431114933053N01303857EA0000002042
B1431164933060N01303796EA0000002044
B1431214933071N01303737EA0000002040
B1431264933079N01303670EA0000002026
B1431314933089N01303603EA0000002020
B1431364933099N01303539EA0000002017
B1431414933112N01303477EA0000002012
B1431464933120N01303409EA0000002005
B1431514933130N01303341EA0000001998
B1431564933145N01303274EA0000001988
B1432014933161N01303210EA0000001979
B1432064933178N01303146EA0000001967
B1432114933197N01303078EA0000001953
B1432164933219N01303005EA0000001938
B1432214933245N01302930EA0000001915
B1432264933272N01302862EA0000001904
B1432314933299N01302791EA0000001887
B1432364933324N01302719EA0000001868
B1432414933349N01302648EA0000001855
B1432464933374N01302575EA0000001836
B1432514933398N01302501EA0000001821
B1432564933418N01302422EA0000001804
B1433014933439N01302346EA0000001787
B1433064933461N01302271EA0000001771
B1433114933486N01302195EA0000001751
B1433164933509N01302123EA0000001733
B1433214933531N01302047EA0000001716
B1433264933554N01301971EA0000001697
B1433314933576N01301894EA0000001680
B1433364933600N01301821EA0000001664
B1433414933624N01301744EA0000001644
B1433464933649N01301672EA0000001630
B1433514933673N01301603EA0000001614
B1433564933696N01301532EA0000001599
B1434014933722N01301461EA0000001579
B1434064933747N01301390EA0000001564
B1434114933773N01301320EA0000001547
B1434164933799N01301249EA0000001528
B1434214933824N01301178EA0000001513
B1434264933849N01301107EA0000001498
B1434314933874N01301035EA0000001485
B1434364933897N01300963EA0000001471
B1434414933922N01300891EA0000001457
B1434464933950N01300822EA0000001442
B1434514933979N01300753EA0000001426
B1434564934008N01300685EA0000001410
B1435014934037N01300616EA0000001396
B1435064934064N01300547EA0000001382
B1435114934089N01300480EA0000001368
B1435164934113N01300418EA0000001355
B1435214934133N01300353EA0000001342
B1435264934155N01300290EA0000001328
B1435314934178N01300226EA0000001310
B1435364934203N01300160EA0000001294
B1435414934227N01300099EA0000001287
B1435464934246N01300043EA0000001282
B1435514934266N01259987EA0000001269
B1435564934287N01259931EA0000001261
B1436014934308N01259875EA0000001253
B1436064934335N01259814EA0000001243
B1436114934361N01259753EA0000001244
B1436164934387N01259703EA0000001239
B1436214934412N01259645EA0000001234
B1436264934434N01259588EA0000001235
B1436314934447N01259526EA0000001240
B1436364934472N01259466EA0000001243
B1436414934495N01259460EA0000001249
B1436464934483N01259456EA0000001250
B1436514934475N01259398EA0000001257
B1436564934498N01259344EA0000001260
B1437014934514N01259345EA0000001266
B1437064934498N01259317EA0000001269
B1437114934492N01259263EA0000001269
B1437164934500N01259194EA0000001269
B1437214934517N01259133EA0000001260
B1437264934538N01259075EA0000001257
B1437314934557N01259013EA0000001255
B1437364934576N01258954EA0000001254
B1437414934599N01258886EA0000001253
B1437464934622N01258825EA0000001260
B1437514934647N01258819EA0000001265
B1437564934633N01258799EA0000001268
B1438014934630N01258733EA0000001276
B1438064934652N01258681EA0000001279
B1438114934671N01258679EA0000001282
B1438164934660N01258660EA0000001288
B1438214934653N01258597EA0000001295
B1438264934674N01258542EA0000001300
B1438314934693N01258540EA0000001301
B1438364934678N01258527EA0000001301
B1438414934662N01258484EA0000001310
B1438464934679N01258421EA0000001313
B1438514934707N01258394EA0000001320
B1438564934707N01258397EA0000001321
B1439014934694N01258359EA0000001327
B1439064934699N01258291EA0000001331
B1439114934727N01258244EA0000001333
B1439164934750N01258231EA0000001340
B1439214934747N01258230EA0000001342
B1439264934736N01258188EA0000001349
B1439314934750N01258124EA0000001352
B1439364934782N01258096EA0000001358
B1439414934791N01258097EA0000001362
B1439464934777N01258064EA0000001366
B1439514934778N01258004EA0000001374
B1439564934809N01257962EA0000001377
B1440014934823N01257965EA0000001382
B1440064934812N01257940EA0000001386
B1440114934812N01257878EA0000001391
B1440164934827N01257817EA0000001395
B1440214934852N01257807EA0000001400
B1440264934850N01257806EA0000001409
B1440314934838N01257760EA0000001413
B1440364934854N01257705EA0000001415
B1440414934886N01257680EA0000001427
B1440464934894N01257680EA0000001442
B1440514934885N01257629EA0000001451
B1440564934904N01257575EA0000001469
B1441014934913N01257581EA0000001481
B1441064934894N01257550EA0000001492
B1441114934892N01257490EA0000001507
B1441164934919N01257445EA0000001513
B1441214934937N01257448EA0000001530
B1441264934919N01257430EA0000001540
B1441314934926N01257369EA0000001553
B1441364934955N01257354EA0000001564
B1441414934956N01257357EA0000001579
B1441464934939N01257315EA0000001592
B1441514934957N01257256EA0000001605
B1441564934987N01257226EA0000001613
B1442014934999N01257233EA0000001622
B1442064934981N01257226EA0000001634
B1442114934973N01257182EA0000001644
B1442164934997N01257139EA0000001653
B1442214935011N01257141EA0000001662
B1442264934998N01257121EA0000001671
B1442314934994N01257060EA0000001680
B1442364935019N01257018EA0000001685
B1442414935052N01257008EA0000001691
B1442464935067N01257018EA0000001695
B1442514935051N01257024EA0000001703
B1442564935046N01257023EA0000001717
B1443014935072N01256994EA0000001720
B1443064935084N01256942EA0000001731
B1443114935072N01256896EA0000001740
B1443164935070N01256903EA0000001747
B1443214935093N01256896EA0000001763
B1443264935099N01256842EA0000001767
B1443314935079N01256823EA0000001777
B1443364935077N01256832EA0000001791
B1443414935102N01256820EA0000001801
B1443464935123N01256772EA0000001807
B1443514935126N01256712EA0000001811
B1443564935121N01256654EA0000001825
B1444014935148N01256618EA0000001835
B1444064935156N01256631EA0000001846
B1444114935139N01256606EA0000001859
B1454264935683N01250436EA0000002229
B1454314935663N01250389EA0000002228
B1454364935650N01250330EA0000002236
B1454414935648N01250264EA0000002250
B1454464935664N01250207EA0000002264
B1454514935680N01250205EA0000002275
B1454564935664N01250189EA0000002289
B1455014935646N01250144EA0000002303
B1455064935641N01250080EA0000002319
B1455114935657N01250027EA0000002338
B1455164935675N01250031EA0000002348
B1455214935655N01250016EA0000002358
B1455264935652N01249957EA0000002374
B1455314935677N01249917EA0000002389
B1455364935698N01249925EA0000002400
B1455414935691N01249943EA0000002409
B1455464935668N01249921EA0000002419
B1455514935663N01249861EA0000002434
B1455564935687N01249823EA0000002446
B1456014935696N01249835EA0000002457
B1456064935681N01249822EA0000002470
B1456114935669N01249774EA0000002476
B1456164935670N01249707EA0000002485
B1456214935676N01249644EA0000002500
B1456264935686N01249583EA0000002506
B1456314935695N01249522EA0000002515
B1456364935700N01249462EA0000002521
B1456414935705N01249402EA0000002526
B1456464935710N01249337EA0000002530
B1456514935717N01249272EA0000002539
B1456564935725N01249201EA0000002545
B1457014935735N01249129EA0000002553
B1457064935743N01249055EA0000002560
B1457114935754N01248982EA0000002568
B1457164935765N01248909EA0000002570
B1457214935773N01248840EA0000002569
B1457264935783N01248762EA0000002553
B1457314935794N01248679EA0000002546
B1457364935807N01248596EA0000002531
B1457414935822N01248516EA0000002522
B1457464935840N01248431EA0000002511
B1457514935859N01248348EA0000002503
B1457564935880N01248268EA0000002497
B1458014935901N01248184EA0000002490
B1458064935918N01248103EA0000002487
B1458114935935N01248023EA0000002483
B1458164935955N01247944EA0000002470
B1458214935976N01247864EA0000002467
B1458264935997N01247780EA0000002460
B1458314936015N01247698EA0000002453
B1458364936033N01247615EA0000002445
B1458414936047N01247530EA0000002436
B1458464936063N01247447EA0000002427
B1458514936077N01247362EA0000002419
B1458564936091N01247277EA0000002406
B1459014936103N01247191EA0000002399
B1459064936118N01247106EA0000002386
B1459114936130N01247020EA0000002374
B1459164936139N01246933EA0000002367
B1459214936152N01246848EA0000002357
B1459264936167N01246762EA0000002345
B1459314936181N01246677EA0000002340
B1459364936193N01246588EA0000002328
B1459414936204N01246502EA0000002321
B1459464936215N01246417EA0000002310
B1459514936228N01246336EA0000002299
B1459564936238N01246253EA0000002288
B1500014936247N01246172EA0000002277
B1500064936256N01246091EA0000002272
B1500114936266N01246010EA0000002259
B1500164936276N01245931EA0000002254
B1500214936284N01245852EA0000002251
B1500264936294N01245771EA0000002239
B1500314936305N01245696EA0000002235
B1500364936312N01245619EA0000002226
B1500414936318N01245546EA0000002222
B1500464936327N01245476EA0000002214
B1500514936337N01245407EA0000002200
B1500564936342N01245333EA0000002180
B1501014936346N01245262EA0000002164
B1501064936351N01245189EA0000002147
B1501114936355N01245116EA0000002131
B1501164936359N01245045EA0000002119
B1501214936362N01244973EA0000002104
B1501264936367N01244901EA0000002087